<?xml version="1.0" encoding="UTF-8" standalone="no" ?>
<gpx xmlns="http://www.topografix.com/GPX/1/1" xmlns:xsi="http://www.w3.org/2001/XMLSchema-instance" xsi:schemaLocation="http://www.topografix.com/GPX/1/1 http://www.topografix.com/GPX/1/1/gpx.xsd" version="1.1" creator="VisuGPX - https://www.visugpx.com">
  <metadata>
    <name>Tracé actuel: 23 JUIL 2020 07:58</name>
    <desc><![CDATA[le denivelé moins fort que dans l'autre sens]]></desc>
  </metadata>
  <trk>
    <name><![CDATA[Tracé actuel: 23 JUIL 2020 07:58]]></name>
    <trkseg>
      <trkpt lat="49.63406" lon="4.98028">
        <ele>181.83</ele>
        <time>2020-07-23T05:58:26Z</time>
      </trkpt>
      <trkpt lat="49.6344" lon="4.9805">
        <ele>187.59</ele>
        <time>2020-07-23T05:58:45Z</time>
      </trkpt>
      <trkpt lat="49.63443" lon="4.98056">
        <ele>180.87</ele>
        <time>2020-07-23T05:58:58Z</time>
      </trkpt>
      <trkpt lat="49.63445" lon="4.98063">
        <ele>178.94</ele>
        <time>2020-07-23T05:59:06Z</time>
      </trkpt>
      <trkpt lat="49.63457" lon="4.98077">
        <ele>178.94</ele>
        <time>2020-07-23T05:59:21Z</time>
      </trkpt>
      <trkpt lat="49.63466" lon="4.98083">
        <ele>177.5</ele>
        <time>2020-07-23T05:59:29Z</time>
      </trkpt>
      <trkpt lat="49.6347" lon="4.98091">
        <ele>177.5</ele>
        <time>2020-07-23T05:59:36Z</time>
      </trkpt>
      <trkpt lat="49.63472" lon="4.98097">
        <ele>178.94</ele>
        <time>2020-07-23T05:59:42Z</time>
      </trkpt>
      <trkpt lat="49.63478" lon="4.98104">
        <ele>180.38</ele>
        <time>2020-07-23T05:59:51Z</time>
      </trkpt>
      <trkpt lat="49.63487" lon="4.9812">
        <ele>180.38</ele>
        <time>2020-07-23T06:00:05Z</time>
      </trkpt>
      <trkpt lat="49.6349" lon="4.98128">
        <ele>180.87</ele>
        <time>2020-07-23T06:00:12Z</time>
      </trkpt>
      <trkpt lat="49.63492" lon="4.98135">
        <ele>181.35</ele>
        <time>2020-07-23T06:00:19Z</time>
      </trkpt>
      <trkpt lat="49.6349" lon="4.9814">
        <ele>181.83</ele>
        <time>2020-07-23T06:00:24Z</time>
      </trkpt>
      <trkpt lat="49.63487" lon="4.98145">
        <ele>182.31</ele>
        <time>2020-07-23T06:00:30Z</time>
      </trkpt>
      <trkpt lat="49.6348" lon="4.98163">
        <ele>181.83</ele>
        <time>2020-07-23T06:00:45Z</time>
      </trkpt>
      <trkpt lat="49.63476" lon="4.98178">
        <ele>182.31</ele>
        <time>2020-07-23T06:00:57Z</time>
      </trkpt>
      <trkpt lat="49.63473" lon="4.98192">
        <ele>184.23</ele>
        <time>2020-07-23T06:01:08Z</time>
      </trkpt>
      <trkpt lat="49.63472" lon="4.98198">
        <ele>185.67</ele>
        <time>2020-07-23T06:01:13Z</time>
      </trkpt>
      <trkpt lat="49.63464" lon="4.98214">
        <ele>186.15</ele>
        <time>2020-07-23T06:01:26Z</time>
      </trkpt>
      <trkpt lat="49.63456" lon="4.98228">
        <ele>187.59</ele>
        <time>2020-07-23T06:01:39Z</time>
      </trkpt>
      <trkpt lat="49.63447" lon="4.98242">
        <ele>188.08</ele>
        <time>2020-07-23T06:01:53Z</time>
      </trkpt>
      <trkpt lat="49.63445" lon="4.98248">
        <ele>188.08</ele>
        <time>2020-07-23T06:01:58Z</time>
      </trkpt>
      <trkpt lat="49.63438" lon="4.98257">
        <ele>187.59</ele>
        <time>2020-07-23T06:02:13Z</time>
      </trkpt>
      <trkpt lat="49.63428" lon="4.98272">
        <ele>190.48</ele>
        <time>2020-07-23T06:02:28Z</time>
      </trkpt>
      <trkpt lat="49.63418" lon="4.98284">
        <ele>193.84</ele>
        <time>2020-07-23T06:02:43Z</time>
      </trkpt>
      <trkpt lat="49.63405" lon="4.98297">
        <ele>198.17</ele>
        <time>2020-07-23T06:03:00Z</time>
      </trkpt>
      <trkpt lat="49.63393" lon="4.98313">
        <ele>201.05</ele>
        <time>2020-07-23T06:03:17Z</time>
      </trkpt>
      <trkpt lat="49.63382" lon="4.98321">
        <ele>200.09</ele>
        <time>2020-07-23T06:03:31Z</time>
      </trkpt>
      <trkpt lat="49.63368" lon="4.98329">
        <ele>200.09</ele>
        <time>2020-07-23T06:03:48Z</time>
      </trkpt>
      <trkpt lat="49.63358" lon="4.98339">
        <ele>201.05</ele>
        <time>2020-07-23T06:04:01Z</time>
      </trkpt>
      <trkpt lat="49.63348" lon="4.98347">
        <ele>202.49</ele>
        <time>2020-07-23T06:04:14Z</time>
      </trkpt>
      <trkpt lat="49.63335" lon="4.98346">
        <ele>204.42</ele>
        <time>2020-07-23T06:04:29Z</time>
      </trkpt>
      <trkpt lat="49.63328" lon="4.98347">
        <ele>203.94</ele>
        <time>2020-07-23T06:04:40Z</time>
      </trkpt>
      <trkpt lat="49.63318" lon="4.98345">
        <ele>203.46</ele>
        <time>2020-07-23T06:04:51Z</time>
      </trkpt>
      <trkpt lat="49.6331" lon="4.98344">
        <ele>205.38</ele>
        <time>2020-07-23T06:04:58Z</time>
      </trkpt>
      <trkpt lat="49.63297" lon="4.98343">
        <ele>207.78</ele>
        <time>2020-07-23T06:05:12Z</time>
      </trkpt>
      <trkpt lat="49.63295" lon="4.98344">
        <ele>207.78</ele>
        <time>2020-07-23T06:05:14Z</time>
      </trkpt>
      <trkpt lat="49.6329" lon="4.98341">
        <ele>207.3</ele>
        <time>2020-07-23T06:05:20Z</time>
      </trkpt>
      <trkpt lat="49.63283" lon="4.98342">
        <ele>208.74</ele>
        <time>2020-07-23T06:05:36Z</time>
      </trkpt>
      <trkpt lat="49.63281" lon="4.98344">
        <ele>208.74</ele>
        <time>2020-07-23T06:05:43Z</time>
      </trkpt>
      <trkpt lat="49.63271" lon="4.98358">
        <ele>212.11</ele>
        <time>2020-07-23T06:05:59Z</time>
      </trkpt>
      <trkpt lat="49.63262" lon="4.98372">
        <ele>213.07</ele>
        <time>2020-07-23T06:06:15Z</time>
      </trkpt>
      <trkpt lat="49.63251" lon="4.98387">
        <ele>217.88</ele>
        <time>2020-07-23T06:06:33Z</time>
      </trkpt>
      <trkpt lat="49.6324" lon="4.98391">
        <ele>223.16</ele>
        <time>2020-07-23T06:06:52Z</time>
      </trkpt>
      <trkpt lat="49.63223" lon="4.98399">
        <ele>225.57</ele>
        <time>2020-07-23T06:07:09Z</time>
      </trkpt>
      <trkpt lat="49.6321" lon="4.98412">
        <ele>229.89</ele>
        <time>2020-07-23T06:07:32Z</time>
      </trkpt>
      <trkpt lat="49.63199" lon="4.98414">
        <ele>234.7</ele>
        <time>2020-07-23T06:07:52Z</time>
      </trkpt>
      <trkpt lat="49.63202" lon="4.98416">
        <ele>236.14</ele>
        <time>2020-07-23T06:08:21Z</time>
      </trkpt>
      <trkpt lat="49.63189" lon="4.9842">
        <ele>237.58</ele>
        <time>2020-07-23T06:08:41Z</time>
      </trkpt>
      <trkpt lat="49.63165" lon="4.98424">
        <ele>238.54</ele>
        <time>2020-07-23T06:09:02Z</time>
      </trkpt>
      <trkpt lat="49.6315" lon="4.98429">
        <ele>239.51</ele>
        <time>2020-07-23T06:09:21Z</time>
      </trkpt>
      <trkpt lat="49.63132" lon="4.98433">
        <ele>242.87</ele>
        <time>2020-07-23T06:09:41Z</time>
      </trkpt>
      <trkpt lat="49.63114" lon="4.98436">
        <ele>244.31</ele>
        <time>2020-07-23T06:09:59Z</time>
      </trkpt>
      <trkpt lat="49.631" lon="4.98446">
        <ele>248.16</ele>
        <time>2020-07-23T06:10:18Z</time>
      </trkpt>
      <trkpt lat="49.63081" lon="4.98449">
        <ele>252</ele>
        <time>2020-07-23T06:10:36Z</time>
      </trkpt>
      <trkpt lat="49.63067" lon="4.98457">
        <ele>252</ele>
        <time>2020-07-23T06:10:55Z</time>
      </trkpt>
      <trkpt lat="49.63056" lon="4.98464">
        <ele>252</ele>
        <time>2020-07-23T06:11:10Z</time>
      </trkpt>
      <trkpt lat="49.63044" lon="4.9848">
        <ele>254.89</ele>
        <time>2020-07-23T06:11:30Z</time>
      </trkpt>
      <trkpt lat="49.63043" lon="4.98482">
        <ele>254.89</ele>
        <time>2020-07-23T06:11:32Z</time>
      </trkpt>
      <trkpt lat="49.63035" lon="4.98495">
        <ele>256.33</ele>
        <time>2020-07-23T06:11:52Z</time>
      </trkpt>
      <trkpt lat="49.63032" lon="4.98512">
        <ele>258.25</ele>
        <time>2020-07-23T06:12:09Z</time>
      </trkpt>
      <trkpt lat="49.63026" lon="4.98536">
        <ele>264.02</ele>
        <time>2020-07-23T06:12:25Z</time>
      </trkpt>
      <trkpt lat="49.63025" lon="4.98558">
        <ele>266.9</ele>
        <time>2020-07-23T06:12:42Z</time>
      </trkpt>
      <trkpt lat="49.63021" lon="4.98567">
        <ele>268.83</ele>
        <time>2020-07-23T06:12:57Z</time>
      </trkpt>
      <trkpt lat="49.63025" lon="4.98579">
        <ele>270.27</ele>
        <time>2020-07-23T06:13:06Z</time>
      </trkpt>
      <trkpt lat="49.63023" lon="4.98609">
        <ele>272.19</ele>
        <time>2020-07-23T06:13:22Z</time>
      </trkpt>
      <trkpt lat="49.63026" lon="4.98637">
        <ele>274.59</ele>
        <time>2020-07-23T06:13:42Z</time>
      </trkpt>
      <trkpt lat="49.63019" lon="4.98656">
        <ele>276.52</ele>
        <time>2020-07-23T06:14:01Z</time>
      </trkpt>
      <trkpt lat="49.63024" lon="4.98676">
        <ele>279.4</ele>
        <time>2020-07-23T06:14:18Z</time>
      </trkpt>
      <trkpt lat="49.63031" lon="4.98689">
        <ele>284.21</ele>
        <time>2020-07-23T06:14:35Z</time>
      </trkpt>
      <trkpt lat="49.6304" lon="4.98708">
        <ele>283.25</ele>
        <time>2020-07-23T06:14:51Z</time>
      </trkpt>
      <trkpt lat="49.63049" lon="4.98718">
        <ele>280.84</ele>
        <time>2020-07-23T06:15:02Z</time>
      </trkpt>
      <trkpt lat="49.6306" lon="4.98727">
        <ele>277.96</ele>
        <time>2020-07-23T06:15:12Z</time>
      </trkpt>
      <trkpt lat="49.6306" lon="4.98735">
        <ele>277.48</ele>
        <time>2020-07-23T06:15:17Z</time>
      </trkpt>
      <trkpt lat="49.63064" lon="4.98751">
        <ele>277.48</ele>
        <time>2020-07-23T06:15:31Z</time>
      </trkpt>
      <trkpt lat="49.63063" lon="4.98757">
        <ele>279.4</ele>
        <time>2020-07-23T06:15:49Z</time>
      </trkpt>
      <trkpt lat="49.63056" lon="4.98767">
        <ele>283.25</ele>
        <time>2020-07-23T06:16:02Z</time>
      </trkpt>
      <trkpt lat="49.63042" lon="4.98781">
        <ele>283.73</ele>
        <time>2020-07-23T06:16:20Z</time>
      </trkpt>
      <trkpt lat="49.63033" lon="4.98795">
        <ele>282.28</ele>
        <time>2020-07-23T06:16:40Z</time>
      </trkpt>
      <trkpt lat="49.6302" lon="4.98804">
        <ele>284.69</ele>
        <time>2020-07-23T06:16:59Z</time>
      </trkpt>
      <trkpt lat="49.63004" lon="4.98812">
        <ele>283.73</ele>
        <time>2020-07-23T06:17:19Z</time>
      </trkpt>
      <trkpt lat="49.62978" lon="4.98836">
        <ele>279.88</ele>
        <time>2020-07-23T06:17:38Z</time>
      </trkpt>
      <trkpt lat="49.62968" lon="4.98846">
        <ele>278.44</ele>
        <time>2020-07-23T06:17:55Z</time>
      </trkpt>
      <trkpt lat="49.62954" lon="4.98862">
        <ele>281.32</ele>
        <time>2020-07-23T06:18:14Z</time>
      </trkpt>
      <trkpt lat="49.62941" lon="4.98872">
        <ele>279.4</ele>
        <time>2020-07-23T06:18:29Z</time>
      </trkpt>
      <trkpt lat="49.62931" lon="4.9888">
        <ele>279.88</ele>
        <time>2020-07-23T06:18:45Z</time>
      </trkpt>
      <trkpt lat="49.62927" lon="4.98891">
        <ele>282.28</ele>
        <time>2020-07-23T06:19:01Z</time>
      </trkpt>
      <trkpt lat="49.62915" lon="4.9891">
        <ele>286.13</ele>
        <time>2020-07-23T06:19:18Z</time>
      </trkpt>
      <trkpt lat="49.62912" lon="4.98912">
        <ele>286.61</ele>
        <time>2020-07-23T06:19:20Z</time>
      </trkpt>
      <trkpt lat="49.62899" lon="4.98922">
        <ele>291.9</ele>
        <time>2020-07-23T06:19:36Z</time>
      </trkpt>
      <trkpt lat="49.62879" lon="4.98919">
        <ele>292.38</ele>
        <time>2020-07-23T06:19:52Z</time>
      </trkpt>
      <trkpt lat="49.62861" lon="4.98914">
        <ele>288.53</ele>
        <time>2020-07-23T06:20:12Z</time>
      </trkpt>
      <trkpt lat="49.6284" lon="4.98906">
        <ele>286.61</ele>
        <time>2020-07-23T06:20:27Z</time>
      </trkpt>
      <trkpt lat="49.62827" lon="4.98902">
        <ele>286.61</ele>
        <time>2020-07-23T06:20:43Z</time>
      </trkpt>
      <trkpt lat="49.62816" lon="4.98896">
        <ele>287.57</ele>
        <time>2020-07-23T06:21:01Z</time>
      </trkpt>
      <trkpt lat="49.62803" lon="4.98888">
        <ele>285.17</ele>
        <time>2020-07-23T06:21:20Z</time>
      </trkpt>
      <trkpt lat="49.62777" lon="4.98869">
        <ele>284.69</ele>
        <time>2020-07-23T06:21:39Z</time>
      </trkpt>
      <trkpt lat="49.62766" lon="4.98868">
        <ele>284.69</ele>
        <time>2020-07-23T06:21:55Z</time>
      </trkpt>
      <trkpt lat="49.62756" lon="4.98869">
        <ele>284.21</ele>
        <time>2020-07-23T06:22:17Z</time>
      </trkpt>
      <trkpt lat="49.6274" lon="4.98866">
        <ele>280.36</ele>
        <time>2020-07-23T06:22:34Z</time>
      </trkpt>
      <trkpt lat="49.62725" lon="4.98858">
        <ele>275.56</ele>
        <time>2020-07-23T06:22:50Z</time>
      </trkpt>
      <trkpt lat="49.62706" lon="4.98856">
        <ele>274.11</ele>
        <time>2020-07-23T06:23:07Z</time>
      </trkpt>
      <trkpt lat="49.62692" lon="4.98852">
        <ele>274.59</ele>
        <time>2020-07-23T06:23:21Z</time>
      </trkpt>
      <trkpt lat="49.6268" lon="4.98847">
        <ele>273.63</ele>
        <time>2020-07-23T06:23:34Z</time>
      </trkpt>
      <trkpt lat="49.62673" lon="4.98842">
        <ele>273.63</ele>
        <time>2020-07-23T06:23:42Z</time>
      </trkpt>
      <trkpt lat="49.62663" lon="4.98835">
        <ele>274.11</ele>
        <time>2020-07-23T06:23:58Z</time>
      </trkpt>
      <trkpt lat="49.62652" lon="4.98829">
        <ele>275.07</ele>
        <time>2020-07-23T06:24:14Z</time>
      </trkpt>
      <trkpt lat="49.6264" lon="4.98822">
        <ele>275.56</ele>
        <time>2020-07-23T06:24:28Z</time>
      </trkpt>
      <trkpt lat="49.62626" lon="4.98818">
        <ele>276.04</ele>
        <time>2020-07-23T06:24:42Z</time>
      </trkpt>
      <trkpt lat="49.62609" lon="4.98809">
        <ele>277</ele>
        <time>2020-07-23T06:25:00Z</time>
      </trkpt>
      <trkpt lat="49.62588" lon="4.98806">
        <ele>276.04</ele>
        <time>2020-07-23T06:25:15Z</time>
      </trkpt>
      <trkpt lat="49.62574" lon="4.988">
        <ele>277.96</ele>
        <time>2020-07-23T06:25:34Z</time>
      </trkpt>
      <trkpt lat="49.62564" lon="4.98796">
        <ele>278.92</ele>
        <time>2020-07-23T06:25:53Z</time>
      </trkpt>
      <trkpt lat="49.62548" lon="4.98792">
        <ele>279.88</ele>
        <time>2020-07-23T06:26:09Z</time>
      </trkpt>
      <trkpt lat="49.62529" lon="4.98787">
        <ele>281.32</ele>
        <time>2020-07-23T06:26:27Z</time>
      </trkpt>
      <trkpt lat="49.62509" lon="4.9878">
        <ele>278.92</ele>
        <time>2020-07-23T06:26:47Z</time>
      </trkpt>
      <trkpt lat="49.62496" lon="4.98783">
        <ele>279.88</ele>
        <time>2020-07-23T06:27:03Z</time>
      </trkpt>
      <trkpt lat="49.62476" lon="4.98774">
        <ele>278.92</ele>
        <time>2020-07-23T06:27:19Z</time>
      </trkpt>
      <trkpt lat="49.62458" lon="4.98758">
        <ele>273.63</ele>
        <time>2020-07-23T06:27:36Z</time>
      </trkpt>
      <trkpt lat="49.62447" lon="4.98752">
        <ele>271.71</ele>
        <time>2020-07-23T06:27:48Z</time>
      </trkpt>
      <trkpt lat="49.6245" lon="4.98731">
        <ele>268.35</ele>
        <time>2020-07-23T06:28:06Z</time>
      </trkpt>
      <trkpt lat="49.62452" lon="4.98727">
        <ele>268.83</ele>
        <time>2020-07-23T06:28:09Z</time>
      </trkpt>
      <trkpt lat="49.62458" lon="4.98706">
        <ele>269.79</ele>
        <time>2020-07-23T06:28:27Z</time>
      </trkpt>
      <trkpt lat="49.62465" lon="4.98686">
        <ele>266.9</ele>
        <time>2020-07-23T06:28:43Z</time>
      </trkpt>
      <trkpt lat="49.62477" lon="4.98659">
        <ele>262.58</ele>
        <time>2020-07-23T06:29:01Z</time>
      </trkpt>
      <trkpt lat="49.62487" lon="4.98644">
        <ele>260.65</ele>
        <time>2020-07-23T06:29:18Z</time>
      </trkpt>
      <trkpt lat="49.62504" lon="4.98628">
        <ele>257.77</ele>
        <time>2020-07-23T06:29:37Z</time>
      </trkpt>
      <trkpt lat="49.62515" lon="4.9862">
        <ele>257.29</ele>
        <time>2020-07-23T06:29:51Z</time>
      </trkpt>
      <trkpt lat="49.62528" lon="4.98607">
        <ele>255.37</ele>
        <time>2020-07-23T06:30:07Z</time>
      </trkpt>
      <trkpt lat="49.62542" lon="4.98592">
        <ele>253.93</ele>
        <time>2020-07-23T06:30:27Z</time>
      </trkpt>
      <trkpt lat="49.62553" lon="4.98576">
        <ele>254.41</ele>
        <time>2020-07-23T06:30:44Z</time>
      </trkpt>
      <trkpt lat="49.62554" lon="4.98576">
        <ele>255.85</ele>
        <time>2020-07-23T06:31:04Z</time>
      </trkpt>
      <trkpt lat="49.62554" lon="4.98575">
        <ele>256.81</ele>
        <time>2020-07-23T06:31:07Z</time>
      </trkpt>
      <trkpt lat="49.62554" lon="4.98565">
        <ele>258.73</ele>
        <time>2020-07-23T06:31:18Z</time>
      </trkpt>
      <trkpt lat="49.6255" lon="4.98561">
        <ele>258.73</ele>
        <time>2020-07-23T06:31:24Z</time>
      </trkpt>
      <trkpt lat="49.62544" lon="4.98559">
        <ele>258.25</ele>
        <time>2020-07-23T06:31:37Z</time>
      </trkpt>
      <trkpt lat="49.62543" lon="4.98558">
        <ele>256.81</ele>
        <time>2020-07-23T06:31:47Z</time>
      </trkpt>
      <trkpt lat="49.62528" lon="4.98564">
        <ele>256.81</ele>
        <time>2020-07-23T06:32:02Z</time>
      </trkpt>
      <trkpt lat="49.62512" lon="4.98562">
        <ele>256.33</ele>
        <time>2020-07-23T06:32:16Z</time>
      </trkpt>
      <trkpt lat="49.62501" lon="4.98554">
        <ele>259.21</ele>
        <time>2020-07-23T06:32:30Z</time>
      </trkpt>
      <trkpt lat="49.62495" lon="4.98551">
        <ele>259.21</ele>
        <time>2020-07-23T06:32:35Z</time>
      </trkpt>
      <trkpt lat="49.62482" lon="4.98543">
        <ele>258.73</ele>
        <time>2020-07-23T06:32:49Z</time>
      </trkpt>
      <trkpt lat="49.62468" lon="4.98532">
        <ele>258.25</ele>
        <time>2020-07-23T06:33:03Z</time>
      </trkpt>
      <trkpt lat="49.62455" lon="4.98523">
        <ele>257.77</ele>
        <time>2020-07-23T06:33:16Z</time>
      </trkpt>
      <trkpt lat="49.62441" lon="4.98513">
        <ele>256.81</ele>
        <time>2020-07-23T06:33:28Z</time>
      </trkpt>
      <trkpt lat="49.62435" lon="4.98508">
        <ele>255.85</ele>
        <time>2020-07-23T06:33:37Z</time>
      </trkpt>
      <trkpt lat="49.62422" lon="4.98495">
        <ele>254.41</ele>
        <time>2020-07-23T06:33:50Z</time>
      </trkpt>
      <trkpt lat="49.62413" lon="4.98488">
        <ele>255.37</ele>
        <time>2020-07-23T06:34:01Z</time>
      </trkpt>
      <trkpt lat="49.624" lon="4.98478">
        <ele>254.89</ele>
        <time>2020-07-23T06:34:13Z</time>
      </trkpt>
      <trkpt lat="49.62387" lon="4.98469">
        <ele>254.89</ele>
        <time>2020-07-23T06:34:27Z</time>
      </trkpt>
      <trkpt lat="49.62378" lon="4.98462">
        <ele>255.85</ele>
        <time>2020-07-23T06:34:34Z</time>
      </trkpt>
      <trkpt lat="49.62374" lon="4.98462">
        <ele>256.33</ele>
        <time>2020-07-23T06:34:39Z</time>
      </trkpt>
      <trkpt lat="49.62361" lon="4.98455">
        <ele>258.73</ele>
        <time>2020-07-23T06:34:52Z</time>
      </trkpt>
      <trkpt lat="49.62352" lon="4.98449">
        <ele>258.73</ele>
        <time>2020-07-23T06:35:02Z</time>
      </trkpt>
      <trkpt lat="49.62344" lon="4.98445">
        <ele>260.17</ele>
        <time>2020-07-23T06:35:16Z</time>
      </trkpt>
      <trkpt lat="49.62333" lon="4.98434">
        <ele>260.17</ele>
        <time>2020-07-23T06:35:28Z</time>
      </trkpt>
      <trkpt lat="49.62323" lon="4.98428">
        <ele>261.62</ele>
        <time>2020-07-23T06:35:41Z</time>
      </trkpt>
      <trkpt lat="49.62321" lon="4.98426">
        <ele>262.1</ele>
        <time>2020-07-23T06:35:44Z</time>
      </trkpt>
      <trkpt lat="49.62314" lon="4.98415">
        <ele>263.06</ele>
        <time>2020-07-23T06:35:52Z</time>
      </trkpt>
      <trkpt lat="49.62305" lon="4.98402">
        <ele>264.02</ele>
        <time>2020-07-23T06:36:07Z</time>
      </trkpt>
      <trkpt lat="49.62295" lon="4.98385">
        <ele>264.02</ele>
        <time>2020-07-23T06:36:20Z</time>
      </trkpt>
      <trkpt lat="49.62286" lon="4.98369">
        <ele>264.02</ele>
        <time>2020-07-23T06:36:33Z</time>
      </trkpt>
      <trkpt lat="49.6228" lon="4.98358">
        <ele>264.5</ele>
        <time>2020-07-23T06:36:43Z</time>
      </trkpt>
      <trkpt lat="49.62272" lon="4.98346">
        <ele>264.98</ele>
        <time>2020-07-23T06:36:54Z</time>
      </trkpt>
      <trkpt lat="49.6227" lon="4.98344">
        <ele>264.98</ele>
        <time>2020-07-23T06:36:56Z</time>
      </trkpt>
      <trkpt lat="49.62258" lon="4.98326">
        <ele>262.58</ele>
        <time>2020-07-23T06:37:12Z</time>
      </trkpt>
      <trkpt lat="49.6225" lon="4.98309">
        <ele>261.62</ele>
        <time>2020-07-23T06:37:27Z</time>
      </trkpt>
      <trkpt lat="49.62236" lon="4.98296">
        <ele>264.98</ele>
        <time>2020-07-23T06:37:45Z</time>
      </trkpt>
      <trkpt lat="49.62222" lon="4.98288">
        <ele>270.27</ele>
        <time>2020-07-23T06:38:02Z</time>
      </trkpt>
      <trkpt lat="49.62207" lon="4.9828">
        <ele>273.15</ele>
        <time>2020-07-23T06:38:18Z</time>
      </trkpt>
      <trkpt lat="49.62188" lon="4.98276">
        <ele>274.59</ele>
        <time>2020-07-23T06:38:36Z</time>
      </trkpt>
      <trkpt lat="49.62167" lon="4.98277">
        <ele>273.15</ele>
        <time>2020-07-23T06:38:49Z</time>
      </trkpt>
      <trkpt lat="49.62156" lon="4.98276">
        <ele>272.67</ele>
        <time>2020-07-23T06:38:59Z</time>
      </trkpt>
      <trkpt lat="49.62134" lon="4.98264">
        <ele>269.31</ele>
        <time>2020-07-23T06:39:18Z</time>
      </trkpt>
      <trkpt lat="49.62131" lon="4.98262">
        <ele>269.31</ele>
        <time>2020-07-23T06:39:22Z</time>
      </trkpt>
      <trkpt lat="49.62115" lon="4.9825">
        <ele>270.27</ele>
        <time>2020-07-23T06:39:37Z</time>
      </trkpt>
      <trkpt lat="49.62103" lon="4.98243">
        <ele>270.75</ele>
        <time>2020-07-23T06:39:49Z</time>
      </trkpt>
      <trkpt lat="49.62089" lon="4.98228">
        <ele>267.86</ele>
        <time>2020-07-23T06:40:02Z</time>
      </trkpt>
      <trkpt lat="49.62075" lon="4.98219">
        <ele>268.35</ele>
        <time>2020-07-23T06:40:16Z</time>
      </trkpt>
      <trkpt lat="49.62059" lon="4.98213">
        <ele>269.31</ele>
        <time>2020-07-23T06:40:31Z</time>
      </trkpt>
      <trkpt lat="49.62055" lon="4.98211">
        <ele>269.79</ele>
        <time>2020-07-23T06:40:36Z</time>
      </trkpt>
      <trkpt lat="49.62043" lon="4.98202">
        <ele>270.75</ele>
        <time>2020-07-23T06:40:49Z</time>
      </trkpt>
      <trkpt lat="49.62031" lon="4.98197">
        <ele>271.23</ele>
        <time>2020-07-23T06:41:02Z</time>
      </trkpt>
      <trkpt lat="49.62017" lon="4.98188">
        <ele>272.19</ele>
        <time>2020-07-23T06:41:15Z</time>
      </trkpt>
      <trkpt lat="49.62002" lon="4.9818">
        <ele>270.75</ele>
        <time>2020-07-23T06:41:30Z</time>
      </trkpt>
      <trkpt lat="49.6199" lon="4.98173">
        <ele>270.75</ele>
        <time>2020-07-23T06:41:43Z</time>
      </trkpt>
      <trkpt lat="49.61979" lon="4.98167">
        <ele>271.23</ele>
        <time>2020-07-23T06:41:56Z</time>
      </trkpt>
      <trkpt lat="49.61965" lon="4.98161">
        <ele>272.19</ele>
        <time>2020-07-23T06:42:11Z</time>
      </trkpt>
      <trkpt lat="49.61961" lon="4.98158">
        <ele>272.19</ele>
        <time>2020-07-23T06:42:15Z</time>
      </trkpt>
      <trkpt lat="49.61953" lon="4.98158">
        <ele>276.04</ele>
        <time>2020-07-23T06:42:25Z</time>
      </trkpt>
      <trkpt lat="49.61938" lon="4.98151">
        <ele>277.96</ele>
        <time>2020-07-23T06:42:41Z</time>
      </trkpt>
      <trkpt lat="49.61923" lon="4.98141">
        <ele>280.36</ele>
        <time>2020-07-23T06:42:58Z</time>
      </trkpt>
      <trkpt lat="49.6191" lon="4.98141">
        <ele>283.25</ele>
        <time>2020-07-23T06:43:11Z</time>
      </trkpt>
      <trkpt lat="49.61895" lon="4.98138">
        <ele>285.65</ele>
        <time>2020-07-23T06:43:27Z</time>
      </trkpt>
      <trkpt lat="49.61879" lon="4.98145">
        <ele>291.42</ele>
        <time>2020-07-23T06:43:44Z</time>
      </trkpt>
      <trkpt lat="49.61866" lon="4.98156">
        <ele>297.18</ele>
        <time>2020-07-23T06:43:58Z</time>
      </trkpt>
      <trkpt lat="49.61859" lon="4.9816">
        <ele>301.03</ele>
        <time>2020-07-23T06:44:06Z</time>
      </trkpt>
      <trkpt lat="49.61847" lon="4.98166">
        <ele>306.8</ele>
        <time>2020-07-23T06:44:20Z</time>
      </trkpt>
      <trkpt lat="49.61842" lon="4.98166">
        <ele>311.6</ele>
        <time>2020-07-23T06:44:34Z</time>
      </trkpt>
      <trkpt lat="49.61842" lon="4.98167">
        <ele>312.57</ele>
        <time>2020-07-23T06:44:52Z</time>
      </trkpt>
      <trkpt lat="49.61841" lon="4.98164">
        <ele>312.09</ele>
        <time>2020-07-23T06:44:55Z</time>
      </trkpt>
      <trkpt lat="49.61842" lon="4.98149">
        <ele>308.72</ele>
        <time>2020-07-23T06:45:11Z</time>
      </trkpt>
      <trkpt lat="49.61849" lon="4.98128">
        <ele>309.2</ele>
        <time>2020-07-23T06:45:27Z</time>
      </trkpt>
      <trkpt lat="49.61849" lon="4.98121">
        <ele>309.2</ele>
        <time>2020-07-23T06:45:32Z</time>
      </trkpt>
      <trkpt lat="49.61856" lon="4.98103">
        <ele>307.76</ele>
        <time>2020-07-23T06:45:48Z</time>
      </trkpt>
      <trkpt lat="49.61859" lon="4.98098">
        <ele>308.24</ele>
        <time>2020-07-23T06:45:52Z</time>
      </trkpt>
      <trkpt lat="49.61865" lon="4.98093">
        <ele>308.72</ele>
        <time>2020-07-23T06:45:58Z</time>
      </trkpt>
      <trkpt lat="49.61869" lon="4.9808">
        <ele>308.72</ele>
        <time>2020-07-23T06:46:09Z</time>
      </trkpt>
      <trkpt lat="49.61879" lon="4.98058">
        <ele>308.72</ele>
        <time>2020-07-23T06:46:26Z</time>
      </trkpt>
      <trkpt lat="49.61885" lon="4.98042">
        <ele>308.24</ele>
        <time>2020-07-23T06:46:38Z</time>
      </trkpt>
      <trkpt lat="49.61893" lon="4.98032">
        <ele>304.88</ele>
        <time>2020-07-23T06:46:48Z</time>
      </trkpt>
      <trkpt lat="49.61895" lon="4.9803">
        <ele>303.91</ele>
        <time>2020-07-23T06:46:50Z</time>
      </trkpt>
      <trkpt lat="49.61903" lon="4.98019">
        <ele>301.51</ele>
        <time>2020-07-23T06:46:59Z</time>
      </trkpt>
      <trkpt lat="49.61912" lon="4.98005">
        <ele>298.15</ele>
        <time>2020-07-23T06:47:13Z</time>
      </trkpt>
      <trkpt lat="49.61919" lon="4.97986">
        <ele>294.3</ele>
        <time>2020-07-23T06:47:26Z</time>
      </trkpt>
      <trkpt lat="49.61929" lon="4.97965">
        <ele>287.09</ele>
        <time>2020-07-23T06:47:40Z</time>
      </trkpt>
      <trkpt lat="49.61941" lon="4.97941">
        <ele>282.77</ele>
        <time>2020-07-23T06:47:56Z</time>
      </trkpt>
      <trkpt lat="49.61953" lon="4.97925">
        <ele>281.32</ele>
        <time>2020-07-23T06:48:11Z</time>
      </trkpt>
      <trkpt lat="49.61963" lon="4.97909">
        <ele>280.36</ele>
        <time>2020-07-23T06:48:25Z</time>
      </trkpt>
      <trkpt lat="49.6197" lon="4.97896">
        <ele>279.4</ele>
        <time>2020-07-23T06:48:35Z</time>
      </trkpt>
      <trkpt lat="49.6198" lon="4.97878">
        <ele>281.32</ele>
        <time>2020-07-23T06:48:50Z</time>
      </trkpt>
      <trkpt lat="49.61989" lon="4.97855">
        <ele>282.77</ele>
        <time>2020-07-23T06:49:06Z</time>
      </trkpt>
      <trkpt lat="49.61996" lon="4.97832">
        <ele>282.77</ele>
        <time>2020-07-23T06:49:22Z</time>
      </trkpt>
      <trkpt lat="49.62001" lon="4.97809">
        <ele>284.21</ele>
        <time>2020-07-23T06:49:36Z</time>
      </trkpt>
      <trkpt lat="49.62007" lon="4.97782">
        <ele>285.65</ele>
        <time>2020-07-23T06:49:52Z</time>
      </trkpt>
      <trkpt lat="49.62008" lon="4.97777">
        <ele>286.13</ele>
        <time>2020-07-23T06:49:57Z</time>
      </trkpt>
      <trkpt lat="49.62012" lon="4.9775">
        <ele>285.65</ele>
        <time>2020-07-23T06:50:14Z</time>
      </trkpt>
      <trkpt lat="49.62017" lon="4.97721">
        <ele>285.65</ele>
        <time>2020-07-23T06:50:30Z</time>
      </trkpt>
      <trkpt lat="49.62022" lon="4.97698">
        <ele>284.69</ele>
        <time>2020-07-23T06:50:46Z</time>
      </trkpt>
      <trkpt lat="49.62025" lon="4.97674">
        <ele>284.69</ele>
        <time>2020-07-23T06:51:01Z</time>
      </trkpt>
      <trkpt lat="49.62028" lon="4.97647">
        <ele>284.21</ele>
        <time>2020-07-23T06:51:17Z</time>
      </trkpt>
      <trkpt lat="49.62031" lon="4.97619">
        <ele>284.21</ele>
        <time>2020-07-23T06:51:32Z</time>
      </trkpt>
      <trkpt lat="49.62032" lon="4.9759">
        <ele>282.77</ele>
        <time>2020-07-23T06:51:50Z</time>
      </trkpt>
      <trkpt lat="49.62032" lon="4.97574">
        <ele>283.25</ele>
        <time>2020-07-23T06:52:05Z</time>
      </trkpt>
      <trkpt lat="49.62032" lon="4.9757">
        <ele>283.25</ele>
        <time>2020-07-23T06:52:07Z</time>
      </trkpt>
      <trkpt lat="49.62033" lon="4.97549">
        <ele>282.77</ele>
        <time>2020-07-23T06:52:20Z</time>
      </trkpt>
      <trkpt lat="49.62034" lon="4.97537">
        <ele>282.77</ele>
        <time>2020-07-23T06:52:26Z</time>
      </trkpt>
      <trkpt lat="49.62034" lon="4.97515">
        <ele>283.73</ele>
        <time>2020-07-23T06:52:42Z</time>
      </trkpt>
      <trkpt lat="49.62029" lon="4.97511">
        <ele>284.21</ele>
        <time>2020-07-23T06:52:47Z</time>
      </trkpt>
      <trkpt lat="49.62027" lon="4.9751">
        <ele>284.21</ele>
        <time>2020-07-23T06:52:49Z</time>
      </trkpt>
      <trkpt lat="49.62015" lon="4.97512">
        <ele>284.69</ele>
        <time>2020-07-23T06:53:02Z</time>
      </trkpt>
      <trkpt lat="49.61999" lon="4.97511">
        <ele>286.13</ele>
        <time>2020-07-23T06:53:15Z</time>
      </trkpt>
      <trkpt lat="49.61984" lon="4.97513">
        <ele>287.57</ele>
        <time>2020-07-23T06:53:31Z</time>
      </trkpt>
      <trkpt lat="49.61979" lon="4.97513">
        <ele>288.53</ele>
        <time>2020-07-23T06:53:35Z</time>
      </trkpt>
      <trkpt lat="49.61969" lon="4.97515">
        <ele>289.97</ele>
        <time>2020-07-23T06:53:46Z</time>
      </trkpt>
      <trkpt lat="49.61957" lon="4.97516">
        <ele>289.01</ele>
        <time>2020-07-23T06:53:56Z</time>
      </trkpt>
      <trkpt lat="49.6194" lon="4.97517">
        <ele>287.09</ele>
        <time>2020-07-23T06:54:13Z</time>
      </trkpt>
      <trkpt lat="49.61923" lon="4.97516">
        <ele>284.21</ele>
        <time>2020-07-23T06:54:28Z</time>
      </trkpt>
      <trkpt lat="49.61915" lon="4.97514">
        <ele>282.77</ele>
        <time>2020-07-23T06:54:38Z</time>
      </trkpt>
      <trkpt lat="49.61902" lon="4.97512">
        <ele>282.28</ele>
        <time>2020-07-23T06:54:49Z</time>
      </trkpt>
      <trkpt lat="49.61898" lon="4.97513">
        <ele>281.8</ele>
        <time>2020-07-23T06:54:53Z</time>
      </trkpt>
      <trkpt lat="49.6189" lon="4.97506">
        <ele>280.84</ele>
        <time>2020-07-23T06:55:05Z</time>
      </trkpt>
      <trkpt lat="49.61882" lon="4.97496">
        <ele>277.48</ele>
        <time>2020-07-23T06:55:12Z</time>
      </trkpt>
      <trkpt lat="49.61871" lon="4.97481">
        <ele>273.63</ele>
        <time>2020-07-23T06:55:27Z</time>
      </trkpt>
      <trkpt lat="49.61869" lon="4.97478">
        <ele>273.15</ele>
        <time>2020-07-23T06:55:30Z</time>
      </trkpt>
      <trkpt lat="49.61858" lon="4.97459">
        <ele>272.19</ele>
        <time>2020-07-23T06:55:44Z</time>
      </trkpt>
      <trkpt lat="49.61847" lon="4.97445">
        <ele>270.27</ele>
        <time>2020-07-23T06:55:59Z</time>
      </trkpt>
      <trkpt lat="49.61844" lon="4.9744">
        <ele>269.79</ele>
        <time>2020-07-23T06:56:03Z</time>
      </trkpt>
      <trkpt lat="49.6183" lon="4.97427">
        <ele>268.83</ele>
        <time>2020-07-23T06:56:17Z</time>
      </trkpt>
      <trkpt lat="49.61827" lon="4.97421">
        <ele>268.35</ele>
        <time>2020-07-23T06:56:24Z</time>
      </trkpt>
      <trkpt lat="49.61817" lon="4.97394">
        <ele>265.46</ele>
        <time>2020-07-23T06:56:40Z</time>
      </trkpt>
      <trkpt lat="49.61812" lon="4.97376">
        <ele>260.17</ele>
        <time>2020-07-23T06:56:55Z</time>
      </trkpt>
      <trkpt lat="49.61808" lon="4.97363">
        <ele>260.17</ele>
        <time>2020-07-23T06:57:04Z</time>
      </trkpt>
      <trkpt lat="49.61802" lon="4.97349">
        <ele>263.54</ele>
        <time>2020-07-23T06:57:20Z</time>
      </trkpt>
      <trkpt lat="49.61797" lon="4.97327">
        <ele>263.54</ele>
        <time>2020-07-23T06:57:37Z</time>
      </trkpt>
      <trkpt lat="49.61791" lon="4.97308">
        <ele>265.46</ele>
        <time>2020-07-23T06:57:52Z</time>
      </trkpt>
      <trkpt lat="49.61784" lon="4.97285">
        <ele>263.54</ele>
        <time>2020-07-23T06:58:07Z</time>
      </trkpt>
      <trkpt lat="49.61783" lon="4.97278">
        <ele>264.98</ele>
        <time>2020-07-23T06:58:15Z</time>
      </trkpt>
      <trkpt lat="49.61779" lon="4.97266">
        <ele>265.94</ele>
        <time>2020-07-23T06:58:23Z</time>
      </trkpt>
      <trkpt lat="49.61777" lon="4.97255">
        <ele>265.46</ele>
        <time>2020-07-23T06:58:33Z</time>
      </trkpt>
      <trkpt lat="49.61774" lon="4.97238">
        <ele>264.5</ele>
        <time>2020-07-23T06:58:46Z</time>
      </trkpt>
      <trkpt lat="49.61767" lon="4.97219">
        <ele>262.1</ele>
        <time>2020-07-23T06:58:58Z</time>
      </trkpt>
      <trkpt lat="49.61761" lon="4.97196">
        <ele>261.62</ele>
        <time>2020-07-23T06:59:13Z</time>
      </trkpt>
      <trkpt lat="49.61755" lon="4.97172">
        <ele>263.54</ele>
        <time>2020-07-23T06:59:29Z</time>
      </trkpt>
      <trkpt lat="49.61754" lon="4.97169">
        <ele>264.5</ele>
        <time>2020-07-23T06:59:32Z</time>
      </trkpt>
      <trkpt lat="49.61752" lon="4.97167">
        <ele>264.98</ele>
        <time>2020-07-23T06:59:35Z</time>
      </trkpt>
      <trkpt lat="49.61742" lon="4.97178">
        <ele>267.38</ele>
        <time>2020-07-23T06:59:48Z</time>
      </trkpt>
      <trkpt lat="49.61735" lon="4.97188">
        <ele>267.86</ele>
        <time>2020-07-23T06:59:56Z</time>
      </trkpt>
      <trkpt lat="49.61722" lon="4.972">
        <ele>263.54</ele>
        <time>2020-07-23T07:00:10Z</time>
      </trkpt>
      <trkpt lat="49.61711" lon="4.97214">
        <ele>263.54</ele>
        <time>2020-07-23T07:00:26Z</time>
      </trkpt>
      <trkpt lat="49.6171" lon="4.97216">
        <ele>263.54</ele>
        <time>2020-07-23T07:00:39Z</time>
      </trkpt>
      <trkpt lat="49.61705" lon="4.97228">
        <ele>265.46</ele>
        <time>2020-07-23T07:00:53Z</time>
      </trkpt>
      <trkpt lat="49.61696" lon="4.97254">
        <ele>269.31</ele>
        <time>2020-07-23T07:01:08Z</time>
      </trkpt>
      <trkpt lat="49.61692" lon="4.97262">
        <ele>268.83</ele>
        <time>2020-07-23T07:01:12Z</time>
      </trkpt>
      <trkpt lat="49.61686" lon="4.9727">
        <ele>269.31</ele>
        <time>2020-07-23T07:01:17Z</time>
      </trkpt>
      <trkpt lat="49.6168" lon="4.9729">
        <ele>276.04</ele>
        <time>2020-07-23T07:01:34Z</time>
      </trkpt>
      <trkpt lat="49.61679" lon="4.97292">
        <ele>277</ele>
        <time>2020-07-23T07:01:37Z</time>
      </trkpt>
      <trkpt lat="49.61664" lon="4.9731">
        <ele>278.92</ele>
        <time>2020-07-23T07:01:50Z</time>
      </trkpt>
      <trkpt lat="49.61649" lon="4.97329">
        <ele>276.04</ele>
        <time>2020-07-23T07:02:06Z</time>
      </trkpt>
      <trkpt lat="49.61632" lon="4.97349">
        <ele>276.52</ele>
        <time>2020-07-23T07:02:21Z</time>
      </trkpt>
      <trkpt lat="49.61617" lon="4.97364">
        <ele>276.04</ele>
        <time>2020-07-23T07:02:37Z</time>
      </trkpt>
      <trkpt lat="49.61605" lon="4.97383">
        <ele>275.56</ele>
        <time>2020-07-23T07:02:51Z</time>
      </trkpt>
      <trkpt lat="49.61593" lon="4.97397">
        <ele>275.07</ele>
        <time>2020-07-23T07:03:06Z</time>
      </trkpt>
      <trkpt lat="49.61583" lon="4.97414">
        <ele>276.52</ele>
        <time>2020-07-23T07:03:20Z</time>
      </trkpt>
      <trkpt lat="49.61567" lon="4.97438">
        <ele>277.96</ele>
        <time>2020-07-23T07:03:37Z</time>
      </trkpt>
      <trkpt lat="49.61554" lon="4.97457">
        <ele>278.92</ele>
        <time>2020-07-23T07:03:53Z</time>
      </trkpt>
      <trkpt lat="49.61549" lon="4.97465">
        <ele>278.44</ele>
        <time>2020-07-23T07:04:00Z</time>
      </trkpt>
      <trkpt lat="49.61544" lon="4.9747">
        <ele>278.92</ele>
        <time>2020-07-23T07:04:05Z</time>
      </trkpt>
      <trkpt lat="49.61537" lon="4.97481">
        <ele>277.48</ele>
        <time>2020-07-23T07:04:18Z</time>
      </trkpt>
      <trkpt lat="49.6153" lon="4.97491">
        <ele>279.4</ele>
        <time>2020-07-23T07:04:27Z</time>
      </trkpt>
      <trkpt lat="49.61522" lon="4.97499">
        <ele>280.84</ele>
        <time>2020-07-23T07:04:39Z</time>
      </trkpt>
      <trkpt lat="49.61515" lon="4.97511">
        <ele>282.28</ele>
        <time>2020-07-23T07:04:52Z</time>
      </trkpt>
      <trkpt lat="49.61504" lon="4.97522">
        <ele>283.73</ele>
        <time>2020-07-23T07:05:05Z</time>
      </trkpt>
      <trkpt lat="49.61496" lon="4.97535">
        <ele>286.61</ele>
        <time>2020-07-23T07:05:17Z</time>
      </trkpt>
      <trkpt lat="49.61495" lon="4.97537">
        <ele>286.61</ele>
        <time>2020-07-23T07:05:20Z</time>
      </trkpt>
      <trkpt lat="49.61493" lon="4.97538">
        <ele>286.13</ele>
        <time>2020-07-23T07:05:22Z</time>
      </trkpt>
      <trkpt lat="49.6149" lon="4.97543">
        <ele>286.61</ele>
        <time>2020-07-23T07:05:27Z</time>
      </trkpt>
      <trkpt lat="49.61479" lon="4.97556">
        <ele>289.01</ele>
        <time>2020-07-23T07:05:41Z</time>
      </trkpt>
      <trkpt lat="49.6147" lon="4.97566">
        <ele>289.49</ele>
        <time>2020-07-23T07:05:52Z</time>
      </trkpt>
      <trkpt lat="49.61469" lon="4.97567">
        <ele>289.49</ele>
        <time>2020-07-23T07:05:54Z</time>
      </trkpt>
      <trkpt lat="49.61458" lon="4.9758">
        <ele>289.97</ele>
        <time>2020-07-23T07:06:08Z</time>
      </trkpt>
      <trkpt lat="49.61447" lon="4.97592">
        <ele>289.97</ele>
        <time>2020-07-23T07:06:20Z</time>
      </trkpt>
      <trkpt lat="49.61441" lon="4.97602">
        <ele>290.46</ele>
        <time>2020-07-23T07:06:31Z</time>
      </trkpt>
      <trkpt lat="49.61431" lon="4.97614">
        <ele>290.94</ele>
        <time>2020-07-23T07:06:42Z</time>
      </trkpt>
      <trkpt lat="49.61423" lon="4.97625">
        <ele>290.46</ele>
        <time>2020-07-23T07:06:53Z</time>
      </trkpt>
      <trkpt lat="49.61414" lon="4.97635">
        <ele>291.42</ele>
        <time>2020-07-23T07:07:04Z</time>
      </trkpt>
      <trkpt lat="49.61404" lon="4.97646">
        <ele>292.38</ele>
        <time>2020-07-23T07:07:15Z</time>
      </trkpt>
      <trkpt lat="49.61403" lon="4.97648">
        <ele>292.86</ele>
        <time>2020-07-23T07:07:18Z</time>
      </trkpt>
      <trkpt lat="49.61391" lon="4.97659">
        <ele>292.38</ele>
        <time>2020-07-23T07:07:30Z</time>
      </trkpt>
      <trkpt lat="49.61382" lon="4.97668">
        <ele>293.34</ele>
        <time>2020-07-23T07:07:42Z</time>
      </trkpt>
      <trkpt lat="49.61381" lon="4.97669">
        <ele>293.34</ele>
        <time>2020-07-23T07:07:43Z</time>
      </trkpt>
      <trkpt lat="49.61371" lon="4.97678">
        <ele>295.26</ele>
        <time>2020-07-23T07:07:55Z</time>
      </trkpt>
      <trkpt lat="49.61361" lon="4.97687">
        <ele>296.22</ele>
        <time>2020-07-23T07:08:07Z</time>
      </trkpt>
      <trkpt lat="49.61353" lon="4.97694">
        <ele>296.7</ele>
        <time>2020-07-23T07:08:17Z</time>
      </trkpt>
      <trkpt lat="49.61348" lon="4.97698">
        <ele>298.15</ele>
        <time>2020-07-23T07:08:23Z</time>
      </trkpt>
      <trkpt lat="49.61345" lon="4.97701">
        <ele>299.59</ele>
        <time>2020-07-23T07:08:28Z</time>
      </trkpt>
      <trkpt lat="49.61336" lon="4.9771">
        <ele>303.91</ele>
        <time>2020-07-23T07:08:41Z</time>
      </trkpt>
      <trkpt lat="49.61332" lon="4.97715">
        <ele>305.84</ele>
        <time>2020-07-23T07:08:47Z</time>
      </trkpt>
      <trkpt lat="49.61331" lon="4.97717">
        <ele>306.32</ele>
        <time>2020-07-23T07:08:49Z</time>
      </trkpt>
      <trkpt lat="49.61322" lon="4.97722">
        <ele>309.2</ele>
        <time>2020-07-23T07:09:01Z</time>
      </trkpt>
      <trkpt lat="49.61317" lon="4.97727">
        <ele>311.12</ele>
        <time>2020-07-23T07:09:07Z</time>
      </trkpt>
      <trkpt lat="49.61311" lon="4.97736">
        <ele>313.53</ele>
        <time>2020-07-23T07:09:16Z</time>
      </trkpt>
      <trkpt lat="49.61307" lon="4.97741">
        <ele>314.01</ele>
        <time>2020-07-23T07:09:21Z</time>
      </trkpt>
      <trkpt lat="49.61297" lon="4.97747">
        <ele>316.41</ele>
        <time>2020-07-23T07:09:32Z</time>
      </trkpt>
      <trkpt lat="49.61296" lon="4.97747">
        <ele>316.41</ele>
        <time>2020-07-23T07:09:36Z</time>
      </trkpt>
      <trkpt lat="49.61284" lon="4.97753">
        <ele>318.81</ele>
        <time>2020-07-23T07:09:48Z</time>
      </trkpt>
      <trkpt lat="49.61273" lon="4.97762">
        <ele>320.26</ele>
        <time>2020-07-23T07:10:00Z</time>
      </trkpt>
      <trkpt lat="49.6126" lon="4.97771">
        <ele>319.78</ele>
        <time>2020-07-23T07:10:13Z</time>
      </trkpt>
      <trkpt lat="49.61247" lon="4.97774">
        <ele>319.78</ele>
        <time>2020-07-23T07:10:25Z</time>
      </trkpt>
      <trkpt lat="49.61238" lon="4.97781">
        <ele>318.81</ele>
        <time>2020-07-23T07:10:36Z</time>
      </trkpt>
      <trkpt lat="49.61231" lon="4.97791">
        <ele>315.45</ele>
        <time>2020-07-23T07:10:58Z</time>
      </trkpt>
      <trkpt lat="49.61222" lon="4.97795">
        <ele>315.45</ele>
        <time>2020-07-23T07:11:11Z</time>
      </trkpt>
      <trkpt lat="49.61214" lon="4.97797">
        <ele>317.37</ele>
        <time>2020-07-23T07:11:22Z</time>
      </trkpt>
      <trkpt lat="49.61209" lon="4.978">
        <ele>319.3</ele>
        <time>2020-07-23T07:11:32Z</time>
      </trkpt>
      <trkpt lat="49.61199" lon="4.9781">
        <ele>322.18</ele>
        <time>2020-07-23T07:11:46Z</time>
      </trkpt>
      <trkpt lat="49.61188" lon="4.97826">
        <ele>324.1</ele>
        <time>2020-07-23T07:12:02Z</time>
      </trkpt>
      <trkpt lat="49.61171" lon="4.97843">
        <ele>325.54</ele>
        <time>2020-07-23T07:12:20Z</time>
      </trkpt>
      <trkpt lat="49.61155" lon="4.97864">
        <ele>325.06</ele>
        <time>2020-07-23T07:12:37Z</time>
      </trkpt>
      <trkpt lat="49.61142" lon="4.97879">
        <ele>326.5</ele>
        <time>2020-07-23T07:12:53Z</time>
      </trkpt>
      <trkpt lat="49.61137" lon="4.97888">
        <ele>328.91</ele>
        <time>2020-07-23T07:13:00Z</time>
      </trkpt>
      <trkpt lat="49.61122" lon="4.97912">
        <ele>331.79</ele>
        <time>2020-07-23T07:13:19Z</time>
      </trkpt>
      <trkpt lat="49.61112" lon="4.9794">
        <ele>333.71</ele>
        <time>2020-07-23T07:13:37Z</time>
      </trkpt>
      <trkpt lat="49.61102" lon="4.97952">
        <ele>333.23</ele>
        <time>2020-07-23T07:13:51Z</time>
      </trkpt>
      <trkpt lat="49.6109" lon="4.97965">
        <ele>333.23</ele>
        <time>2020-07-23T07:14:06Z</time>
      </trkpt>
      <trkpt lat="49.61081" lon="4.97982">
        <ele>332.27</ele>
        <time>2020-07-23T07:14:21Z</time>
      </trkpt>
      <trkpt lat="49.61056" lon="4.98012">
        <ele>333.23</ele>
        <time>2020-07-23T07:14:38Z</time>
      </trkpt>
      <trkpt lat="49.61045" lon="4.98023">
        <ele>330.35</ele>
        <time>2020-07-23T07:14:53Z</time>
      </trkpt>
      <trkpt lat="49.61031" lon="4.98045">
        <ele>322.66</ele>
        <time>2020-07-23T07:15:10Z</time>
      </trkpt>
      <trkpt lat="49.61021" lon="4.98056">
        <ele>320.26</ele>
        <time>2020-07-23T07:15:27Z</time>
      </trkpt>
      <trkpt lat="49.61007" lon="4.98064">
        <ele>318.33</ele>
        <time>2020-07-23T07:15:44Z</time>
      </trkpt>
      <trkpt lat="49.60994" lon="4.98065">
        <ele>317.85</ele>
        <time>2020-07-23T07:16:02Z</time>
      </trkpt>
      <trkpt lat="49.60977" lon="4.98055">
        <ele>315.45</ele>
        <time>2020-07-23T07:16:19Z</time>
      </trkpt>
      <trkpt lat="49.60974" lon="4.98053">
        <ele>315.45</ele>
        <time>2020-07-23T07:16:22Z</time>
      </trkpt>
      <trkpt lat="49.60964" lon="4.98044">
        <ele>314.01</ele>
        <time>2020-07-23T07:16:40Z</time>
      </trkpt>
      <trkpt lat="49.60952" lon="4.98027">
        <ele>315.93</ele>
        <time>2020-07-23T07:16:59Z</time>
      </trkpt>
      <trkpt lat="49.60938" lon="4.98006">
        <ele>318.33</ele>
        <time>2020-07-23T07:17:16Z</time>
      </trkpt>
      <trkpt lat="49.60926" lon="4.97992">
        <ele>321.22</ele>
        <time>2020-07-23T07:17:33Z</time>
      </trkpt>
      <trkpt lat="49.60916" lon="4.97964">
        <ele>318.81</ele>
        <time>2020-07-23T07:17:50Z</time>
      </trkpt>
      <trkpt lat="49.60905" lon="4.97948">
        <ele>316.89</ele>
        <time>2020-07-23T07:18:05Z</time>
      </trkpt>
      <trkpt lat="49.60897" lon="4.97924">
        <ele>309.2</ele>
        <time>2020-07-23T07:18:24Z</time>
      </trkpt>
      <trkpt lat="49.60885" lon="4.97908">
        <ele>309.2</ele>
        <time>2020-07-23T07:18:43Z</time>
      </trkpt>
      <trkpt lat="49.60878" lon="4.97889">
        <ele>308.72</ele>
        <time>2020-07-23T07:18:59Z</time>
      </trkpt>
      <trkpt lat="49.6087" lon="4.97869">
        <ele>308.72</ele>
        <time>2020-07-23T07:19:13Z</time>
      </trkpt>
      <trkpt lat="49.6086" lon="4.9785">
        <ele>303.91</ele>
        <time>2020-07-23T07:19:31Z</time>
      </trkpt>
      <trkpt lat="49.60852" lon="4.97821">
        <ele>301.03</ele>
        <time>2020-07-23T07:19:48Z</time>
      </trkpt>
      <trkpt lat="49.60853" lon="4.9781">
        <ele>299.59</ele>
        <time>2020-07-23T07:19:53Z</time>
      </trkpt>
      <trkpt lat="49.60845" lon="4.97784">
        <ele>293.34</ele>
        <time>2020-07-23T07:20:12Z</time>
      </trkpt>
      <trkpt lat="49.60844" lon="4.97758">
        <ele>289.97</ele>
        <time>2020-07-23T07:20:30Z</time>
      </trkpt>
      <trkpt lat="49.60836" lon="4.97735">
        <ele>283.25</ele>
        <time>2020-07-23T07:20:47Z</time>
      </trkpt>
      <trkpt lat="49.60827" lon="4.97711">
        <ele>277.48</ele>
        <time>2020-07-23T07:21:02Z</time>
      </trkpt>
      <trkpt lat="49.60824" lon="4.97687">
        <ele>268.83</ele>
        <time>2020-07-23T07:21:18Z</time>
      </trkpt>
      <trkpt lat="49.60823" lon="4.97671">
        <ele>266.9</ele>
        <time>2020-07-23T07:21:33Z</time>
      </trkpt>
      <trkpt lat="49.60819" lon="4.97652">
        <ele>265.46</ele>
        <time>2020-07-23T07:21:52Z</time>
      </trkpt>
      <trkpt lat="49.60816" lon="4.97633">
        <ele>262.1</ele>
        <time>2020-07-23T07:22:06Z</time>
      </trkpt>
      <trkpt lat="49.60807" lon="4.97608">
        <ele>259.69</ele>
        <time>2020-07-23T07:22:24Z</time>
      </trkpt>
      <trkpt lat="49.60799" lon="4.97583">
        <ele>260.65</ele>
        <time>2020-07-23T07:22:42Z</time>
      </trkpt>
      <trkpt lat="49.60796" lon="4.97567">
        <ele>262.58</ele>
        <time>2020-07-23T07:22:58Z</time>
      </trkpt>
      <trkpt lat="49.60788" lon="4.97554">
        <ele>263.06</ele>
        <time>2020-07-23T07:23:13Z</time>
      </trkpt>
      <trkpt lat="49.6078" lon="4.97529">
        <ele>275.56</ele>
        <time>2020-07-23T07:23:32Z</time>
      </trkpt>
      <trkpt lat="49.60774" lon="4.97503">
        <ele>280.36</ele>
        <time>2020-07-23T07:23:47Z</time>
      </trkpt>
      <trkpt lat="49.60774" lon="4.97487">
        <ele>277.96</ele>
        <time>2020-07-23T07:23:54Z</time>
      </trkpt>
      <trkpt lat="49.60771" lon="4.97459">
        <ele>269.79</ele>
        <time>2020-07-23T07:24:10Z</time>
      </trkpt>
      <trkpt lat="49.60765" lon="4.97437">
        <ele>264.5</ele>
        <time>2020-07-23T07:24:23Z</time>
      </trkpt>
      <trkpt lat="49.60757" lon="4.97419">
        <ele>265.94</ele>
        <time>2020-07-23T07:24:38Z</time>
      </trkpt>
      <trkpt lat="49.6075" lon="4.9741">
        <ele>266.9</ele>
        <time>2020-07-23T07:24:52Z</time>
      </trkpt>
      <trkpt lat="49.60737" lon="4.9739">
        <ele>268.83</ele>
        <time>2020-07-23T07:25:08Z</time>
      </trkpt>
      <trkpt lat="49.6073" lon="4.97371">
        <ele>268.35</ele>
        <time>2020-07-23T07:25:22Z</time>
      </trkpt>
      <trkpt lat="49.6073" lon="4.97366">
        <ele>267.86</ele>
        <time>2020-07-23T07:25:26Z</time>
      </trkpt>
      <trkpt lat="49.60724" lon="4.97342">
        <ele>264.02</ele>
        <time>2020-07-23T07:25:42Z</time>
      </trkpt>
      <trkpt lat="49.60715" lon="4.97317">
        <ele>260.65</ele>
        <time>2020-07-23T07:25:59Z</time>
      </trkpt>
      <trkpt lat="49.60712" lon="4.97307">
        <ele>260.17</ele>
        <time>2020-07-23T07:26:06Z</time>
      </trkpt>
      <trkpt lat="49.60705" lon="4.97288">
        <ele>255.85</ele>
        <time>2020-07-23T07:26:20Z</time>
      </trkpt>
      <trkpt lat="49.60701" lon="4.97266">
        <ele>253.93</ele>
        <time>2020-07-23T07:26:39Z</time>
      </trkpt>
      <trkpt lat="49.607" lon="4.97263">
        <ele>253.44</ele>
        <time>2020-07-23T07:26:41Z</time>
      </trkpt>
      <trkpt lat="49.60695" lon="4.97235">
        <ele>248.16</ele>
        <time>2020-07-23T07:26:57Z</time>
      </trkpt>
      <trkpt lat="49.60693" lon="4.97222">
        <ele>247.68</ele>
        <time>2020-07-23T07:27:07Z</time>
      </trkpt>
      <trkpt lat="49.60689" lon="4.97201">
        <ele>247.2</ele>
        <time>2020-07-23T07:27:20Z</time>
      </trkpt>
      <trkpt lat="49.60689" lon="4.97174">
        <ele>245.27</ele>
        <time>2020-07-23T07:27:35Z</time>
      </trkpt>
      <trkpt lat="49.60689" lon="4.97163">
        <ele>243.35</ele>
        <time>2020-07-23T07:27:44Z</time>
      </trkpt>
      <trkpt lat="49.6069" lon="4.9715">
        <ele>240.95</ele>
        <time>2020-07-23T07:27:50Z</time>
      </trkpt>
      <trkpt lat="49.6069" lon="4.97128">
        <ele>238.54</ele>
        <time>2020-07-23T07:28:03Z</time>
      </trkpt>
      <trkpt lat="49.6069" lon="4.97107">
        <ele>239.02</ele>
        <time>2020-07-23T07:28:18Z</time>
      </trkpt>
      <trkpt lat="49.6069" lon="4.97104">
        <ele>238.54</ele>
        <time>2020-07-23T07:28:20Z</time>
      </trkpt>
      <trkpt lat="49.6069" lon="4.97092">
        <ele>237.58</ele>
        <time>2020-07-23T07:28:26Z</time>
      </trkpt>
      <trkpt lat="49.60691" lon="4.9708">
        <ele>236.62</ele>
        <time>2020-07-23T07:28:32Z</time>
      </trkpt>
      <trkpt lat="49.60689" lon="4.97053">
        <ele>234.22</ele>
        <time>2020-07-23T07:28:49Z</time>
      </trkpt>
      <trkpt lat="49.60689" lon="4.97047">
        <ele>234.7</ele>
        <time>2020-07-23T07:28:53Z</time>
      </trkpt>
      <trkpt lat="49.6069" lon="4.97019">
        <ele>233.26</ele>
        <time>2020-07-23T07:29:09Z</time>
      </trkpt>
      <trkpt lat="49.60686" lon="4.96998">
        <ele>231.81</ele>
        <time>2020-07-23T07:29:26Z</time>
      </trkpt>
      <trkpt lat="49.60687" lon="4.9699">
        <ele>231.33</ele>
        <time>2020-07-23T07:29:30Z</time>
      </trkpt>
      <trkpt lat="49.60685" lon="4.9696">
        <ele>228.45</ele>
        <time>2020-07-23T07:29:46Z</time>
      </trkpt>
      <trkpt lat="49.60686" lon="4.96937">
        <ele>225.57</ele>
        <time>2020-07-23T07:30:03Z</time>
      </trkpt>
      <trkpt lat="49.60682" lon="4.96913">
        <ele>222.68</ele>
        <time>2020-07-23T07:30:21Z</time>
      </trkpt>
      <trkpt lat="49.60677" lon="4.96898">
        <ele>221.24</ele>
        <time>2020-07-23T07:30:30Z</time>
      </trkpt>
      <trkpt lat="49.60673" lon="4.96874">
        <ele>224.12</ele>
        <time>2020-07-23T07:30:50Z</time>
      </trkpt>
      <trkpt lat="49.60667" lon="4.96859">
        <ele>225.09</ele>
        <time>2020-07-23T07:31:05Z</time>
      </trkpt>
      <trkpt lat="49.60657" lon="4.96829">
        <ele>223.64</ele>
        <time>2020-07-23T07:31:24Z</time>
      </trkpt>
      <trkpt lat="49.60651" lon="4.96812">
        <ele>223.64</ele>
        <time>2020-07-23T07:31:38Z</time>
      </trkpt>
      <trkpt lat="49.60651" lon="4.9681">
        <ele>223.64</ele>
        <time>2020-07-23T07:31:40Z</time>
      </trkpt>
      <trkpt lat="49.60647" lon="4.96798">
        <ele>222.2</ele>
        <time>2020-07-23T07:31:47Z</time>
      </trkpt>
      <trkpt lat="49.60639" lon="4.96776">
        <ele>219.8</ele>
        <time>2020-07-23T07:32:04Z</time>
      </trkpt>
      <trkpt lat="49.60632" lon="4.96753">
        <ele>216.43</ele>
        <time>2020-07-23T07:32:19Z</time>
      </trkpt>
      <trkpt lat="49.60622" lon="4.96722">
        <ele>212.59</ele>
        <time>2020-07-23T07:32:36Z</time>
      </trkpt>
      <trkpt lat="49.60614" lon="4.96695">
        <ele>210.19</ele>
        <time>2020-07-23T07:32:53Z</time>
      </trkpt>
      <trkpt lat="49.60608" lon="4.96676">
        <ele>210.67</ele>
        <time>2020-07-23T07:33:07Z</time>
      </trkpt>
      <trkpt lat="49.60599" lon="4.96643">
        <ele>211.15</ele>
        <time>2020-07-23T07:33:26Z</time>
      </trkpt>
      <trkpt lat="49.60591" lon="4.9661">
        <ele>213.55</ele>
        <time>2020-07-23T07:33:45Z</time>
      </trkpt>
      <trkpt lat="49.60589" lon="4.96599">
        <ele>213.07</ele>
        <time>2020-07-23T07:33:54Z</time>
      </trkpt>
      <trkpt lat="49.60582" lon="4.96567">
        <ele>213.07</ele>
        <time>2020-07-23T07:34:12Z</time>
      </trkpt>
      <trkpt lat="49.60576" lon="4.96536">
        <ele>214.03</ele>
        <time>2020-07-23T07:34:30Z</time>
      </trkpt>
      <trkpt lat="49.60569" lon="4.96504">
        <ele>212.59</ele>
        <time>2020-07-23T07:34:50Z</time>
      </trkpt>
      <trkpt lat="49.60564" lon="4.96478">
        <ele>213.07</ele>
        <time>2020-07-23T07:35:06Z</time>
      </trkpt>
      <trkpt lat="49.6056" lon="4.96447">
        <ele>214.99</ele>
        <time>2020-07-23T07:35:22Z</time>
      </trkpt>
      <trkpt lat="49.6056" lon="4.96444">
        <ele>214.99</ele>
        <time>2020-07-23T07:35:25Z</time>
      </trkpt>
      <trkpt lat="49.60559" lon="4.9642">
        <ele>214.99</ele>
        <time>2020-07-23T07:35:41Z</time>
      </trkpt>
      <trkpt lat="49.60558" lon="4.96391">
        <ele>217.4</ele>
        <time>2020-07-23T07:35:58Z</time>
      </trkpt>
      <trkpt lat="49.60558" lon="4.9639">
        <ele>217.88</ele>
        <time>2020-07-23T07:35:59Z</time>
      </trkpt>
      <trkpt lat="49.6056" lon="4.96379">
        <ele>219.8</ele>
        <time>2020-07-23T07:36:05Z</time>
      </trkpt>
      <trkpt lat="49.60561" lon="4.96354">
        <ele>220.28</ele>
        <time>2020-07-23T07:36:21Z</time>
      </trkpt>
      <trkpt lat="49.6056" lon="4.96326">
        <ele>221.72</ele>
        <time>2020-07-23T07:36:36Z</time>
      </trkpt>
      <trkpt lat="49.60559" lon="4.9631">
        <ele>222.2</ele>
        <time>2020-07-23T07:36:45Z</time>
      </trkpt>
      <trkpt lat="49.60557" lon="4.96278">
        <ele>222.2</ele>
        <time>2020-07-23T07:37:01Z</time>
      </trkpt>
      <trkpt lat="49.60555" lon="4.96245">
        <ele>221.24</ele>
        <time>2020-07-23T07:37:19Z</time>
      </trkpt>
      <trkpt lat="49.60552" lon="4.96219">
        <ele>219.8</ele>
        <time>2020-07-23T07:37:35Z</time>
      </trkpt>
      <trkpt lat="49.60548" lon="4.96193">
        <ele>219.32</ele>
        <time>2020-07-23T07:37:50Z</time>
      </trkpt>
      <trkpt lat="49.60543" lon="4.96165">
        <ele>219.8</ele>
        <time>2020-07-23T07:38:05Z</time>
      </trkpt>
      <trkpt lat="49.60537" lon="4.96145">
        <ele>219.32</ele>
        <time>2020-07-23T07:38:20Z</time>
      </trkpt>
      <trkpt lat="49.60527" lon="4.96119">
        <ele>218.84</ele>
        <time>2020-07-23T07:38:36Z</time>
      </trkpt>
      <trkpt lat="49.60517" lon="4.961">
        <ele>217.4</ele>
        <time>2020-07-23T07:38:55Z</time>
      </trkpt>
      <trkpt lat="49.60507" lon="4.96072">
        <ele>216.91</ele>
        <time>2020-07-23T07:39:14Z</time>
      </trkpt>
      <trkpt lat="49.60499" lon="4.96053">
        <ele>216.91</ele>
        <time>2020-07-23T07:39:28Z</time>
      </trkpt>
      <trkpt lat="49.60497" lon="4.96045">
        <ele>217.4</ele>
        <time>2020-07-23T07:39:33Z</time>
      </trkpt>
      <trkpt lat="49.60487" lon="4.96029">
        <ele>216.43</ele>
        <time>2020-07-23T07:39:49Z</time>
      </trkpt>
      <trkpt lat="49.60482" lon="4.96019">
        <ele>215.95</ele>
        <time>2020-07-23T07:39:55Z</time>
      </trkpt>
      <trkpt lat="49.60471" lon="4.96003">
        <ele>215.95</ele>
        <time>2020-07-23T07:40:11Z</time>
      </trkpt>
      <trkpt lat="49.6046" lon="4.95986">
        <ele>214.03</ele>
        <time>2020-07-23T07:40:24Z</time>
      </trkpt>
      <trkpt lat="49.60447" lon="4.95975">
        <ele>211.63</ele>
        <time>2020-07-23T07:40:39Z</time>
      </trkpt>
      <trkpt lat="49.60432" lon="4.95959">
        <ele>210.67</ele>
        <time>2020-07-23T07:40:53Z</time>
      </trkpt>
      <trkpt lat="49.60418" lon="4.95947">
        <ele>209.22</ele>
        <time>2020-07-23T07:41:10Z</time>
      </trkpt>
      <trkpt lat="49.60398" lon="4.9593">
        <ele>208.26</ele>
        <time>2020-07-23T07:41:29Z</time>
      </trkpt>
      <trkpt lat="49.60383" lon="4.95917">
        <ele>205.38</ele>
        <time>2020-07-23T07:41:45Z</time>
      </trkpt>
      <trkpt lat="49.6037" lon="4.95903">
        <ele>205.86</ele>
        <time>2020-07-23T07:42:01Z</time>
      </trkpt>
      <trkpt lat="49.60361" lon="4.9588">
        <ele>203.94</ele>
        <time>2020-07-23T07:42:19Z</time>
      </trkpt>
      <trkpt lat="49.60355" lon="4.9587">
        <ele>204.42</ele>
        <time>2020-07-23T07:42:27Z</time>
      </trkpt>
      <trkpt lat="49.60349" lon="4.95857">
        <ele>204.9</ele>
        <time>2020-07-23T07:42:40Z</time>
      </trkpt>
      <trkpt lat="49.60339" lon="4.95845">
        <ele>202.98</ele>
        <time>2020-07-23T07:42:49Z</time>
      </trkpt>
      <trkpt lat="49.60325" lon="4.95834">
        <ele>203.94</ele>
        <time>2020-07-23T07:43:03Z</time>
      </trkpt>
      <trkpt lat="49.60312" lon="4.95823">
        <ele>202.98</ele>
        <time>2020-07-23T07:43:18Z</time>
      </trkpt>
      <trkpt lat="49.603" lon="4.95807">
        <ele>206.82</ele>
        <time>2020-07-23T07:43:36Z</time>
      </trkpt>
      <trkpt lat="49.60289" lon="4.95806">
        <ele>205.38</ele>
        <time>2020-07-23T07:43:50Z</time>
      </trkpt>
      <trkpt lat="49.60271" lon="4.95814">
        <ele>205.86</ele>
        <time>2020-07-23T07:44:09Z</time>
      </trkpt>
      <trkpt lat="49.60249" lon="4.95809">
        <ele>205.38</ele>
        <time>2020-07-23T07:44:25Z</time>
      </trkpt>
      <trkpt lat="49.60245" lon="4.95808">
        <ele>202.98</ele>
        <time>2020-07-23T07:44:31Z</time>
      </trkpt>
      <trkpt lat="49.60223" lon="4.95814">
        <ele>206.34</ele>
        <time>2020-07-23T07:44:46Z</time>
      </trkpt>
      <trkpt lat="49.60202" lon="4.95817">
        <ele>206.34</ele>
        <time>2020-07-23T07:45:04Z</time>
      </trkpt>
      <trkpt lat="49.60191" lon="4.95812">
        <ele>206.34</ele>
        <time>2020-07-23T07:45:13Z</time>
      </trkpt>
      <trkpt lat="49.60188" lon="4.9581">
        <ele>207.3</ele>
        <time>2020-07-23T07:45:16Z</time>
      </trkpt>
      <trkpt lat="49.60182" lon="4.95811">
        <ele>207.3</ele>
        <time>2020-07-23T07:45:20Z</time>
      </trkpt>
      <trkpt lat="49.60161" lon="4.95798">
        <ele>204.9</ele>
        <time>2020-07-23T07:45:37Z</time>
      </trkpt>
      <trkpt lat="49.60148" lon="4.95792">
        <ele>206.34</ele>
        <time>2020-07-23T07:45:52Z</time>
      </trkpt>
      <trkpt lat="49.60139" lon="4.95788">
        <ele>205.86</ele>
        <time>2020-07-23T07:45:59Z</time>
      </trkpt>
      <trkpt lat="49.60123" lon="4.9578">
        <ele>206.34</ele>
        <time>2020-07-23T07:46:16Z</time>
      </trkpt>
      <trkpt lat="49.60123" lon="4.95779">
        <ele>206.34</ele>
        <time>2020-07-23T07:46:18Z</time>
      </trkpt>
      <trkpt lat="49.60105" lon="4.95772">
        <ele>208.26</ele>
        <time>2020-07-23T07:46:35Z</time>
      </trkpt>
      <trkpt lat="49.60085" lon="4.95761">
        <ele>214.51</ele>
        <time>2020-07-23T07:46:52Z</time>
      </trkpt>
      <trkpt lat="49.60064" lon="4.95751">
        <ele>215.47</ele>
        <time>2020-07-23T07:47:10Z</time>
      </trkpt>
      <trkpt lat="49.60047" lon="4.95743">
        <ele>217.88</ele>
        <time>2020-07-23T07:47:26Z</time>
      </trkpt>
      <trkpt lat="49.60029" lon="4.9573">
        <ele>221.24</ele>
        <time>2020-07-23T07:47:43Z</time>
      </trkpt>
      <trkpt lat="49.60024" lon="4.95723">
        <ele>218.84</ele>
        <time>2020-07-23T07:47:56Z</time>
      </trkpt>
      <trkpt lat="49.60013" lon="4.95701">
        <ele>211.15</ele>
        <time>2020-07-23T07:48:14Z</time>
      </trkpt>
      <trkpt lat="49.59996" lon="4.95676">
        <ele>207.3</ele>
        <time>2020-07-23T07:48:31Z</time>
      </trkpt>
      <trkpt lat="49.59988" lon="4.95661">
        <ele>204.9</ele>
        <time>2020-07-23T07:48:41Z</time>
      </trkpt>
      <trkpt lat="49.59981" lon="4.95646">
        <ele>203.46</ele>
        <time>2020-07-23T07:48:54Z</time>
      </trkpt>
      <trkpt lat="49.59977" lon="4.95643">
        <ele>204.42</ele>
        <time>2020-07-23T07:49:02Z</time>
      </trkpt>
      <trkpt lat="49.5996" lon="4.95624">
        <ele>202.01</ele>
        <time>2020-07-23T07:49:19Z</time>
      </trkpt>
      <trkpt lat="49.59949" lon="4.95605">
        <ele>198.17</ele>
        <time>2020-07-23T07:49:35Z</time>
      </trkpt>
      <trkpt lat="49.59946" lon="4.95591">
        <ele>196.25</ele>
        <time>2020-07-23T07:49:39Z</time>
      </trkpt>
      <trkpt lat="49.5994" lon="4.95583">
        <ele>193.84</ele>
        <time>2020-07-23T07:49:43Z</time>
      </trkpt>
      <trkpt lat="49.59931" lon="4.95564">
        <ele>191.92</ele>
        <time>2020-07-23T07:49:57Z</time>
      </trkpt>
      <trkpt lat="49.59922" lon="4.95554">
        <ele>191.92</ele>
        <time>2020-07-23T07:50:13Z</time>
      </trkpt>
      <trkpt lat="49.59905" lon="4.95535">
        <ele>196.25</ele>
        <time>2020-07-23T07:50:28Z</time>
      </trkpt>
      <trkpt lat="49.59892" lon="4.95512">
        <ele>194.32</ele>
        <time>2020-07-23T07:50:43Z</time>
      </trkpt>
      <trkpt lat="49.59884" lon="4.95497">
        <ele>196.73</ele>
        <time>2020-07-23T07:50:59Z</time>
      </trkpt>
      <trkpt lat="49.59865" lon="4.95476">
        <ele>195.77</ele>
        <time>2020-07-23T07:51:18Z</time>
      </trkpt>
      <trkpt lat="49.59862" lon="4.95476">
        <ele>195.77</ele>
        <time>2020-07-23T07:51:22Z</time>
      </trkpt>
      <trkpt lat="49.59844" lon="4.95485">
        <ele>191.92</ele>
        <time>2020-07-23T07:51:38Z</time>
      </trkpt>
      <trkpt lat="49.59825" lon="4.95491">
        <ele>190</ele>
        <time>2020-07-23T07:51:56Z</time>
      </trkpt>
      <trkpt lat="49.59805" lon="4.95499">
        <ele>191.92</ele>
        <time>2020-07-23T07:52:15Z</time>
      </trkpt>
      <trkpt lat="49.59788" lon="4.95502">
        <ele>193.36</ele>
        <time>2020-07-23T07:52:31Z</time>
      </trkpt>
      <trkpt lat="49.59781" lon="4.95501">
        <ele>193.84</ele>
        <time>2020-07-23T07:52:37Z</time>
      </trkpt>
      <trkpt lat="49.59762" lon="4.95501">
        <ele>193.36</ele>
        <time>2020-07-23T07:52:55Z</time>
      </trkpt>
      <trkpt lat="49.59744" lon="4.95497">
        <ele>194.8</ele>
        <time>2020-07-23T07:53:10Z</time>
      </trkpt>
      <trkpt lat="49.59727" lon="4.95498">
        <ele>199.13</ele>
        <time>2020-07-23T07:53:26Z</time>
      </trkpt>
      <trkpt lat="49.59724" lon="4.95498">
        <ele>200.09</ele>
        <time>2020-07-23T07:53:31Z</time>
      </trkpt>
      <trkpt lat="49.59718" lon="4.95494">
        <ele>201.53</ele>
        <time>2020-07-23T07:53:38Z</time>
      </trkpt>
      <trkpt lat="49.597" lon="4.95491">
        <ele>202.01</ele>
        <time>2020-07-23T07:53:54Z</time>
      </trkpt>
      <trkpt lat="49.59692" lon="4.95494">
        <ele>202.49</ele>
        <time>2020-07-23T07:54:01Z</time>
      </trkpt>
      <trkpt lat="49.59682" lon="4.95493">
        <ele>202.98</ele>
        <time>2020-07-23T07:54:08Z</time>
      </trkpt>
      <trkpt lat="49.59661" lon="4.95493">
        <ele>203.46</ele>
        <time>2020-07-23T07:54:27Z</time>
      </trkpt>
      <trkpt lat="49.59642" lon="4.9549">
        <ele>204.9</ele>
        <time>2020-07-23T07:54:44Z</time>
      </trkpt>
      <trkpt lat="49.59626" lon="4.95491">
        <ele>205.86</ele>
        <time>2020-07-23T07:55:00Z</time>
      </trkpt>
      <trkpt lat="49.59612" lon="4.9549">
        <ele>205.86</ele>
        <time>2020-07-23T07:55:11Z</time>
      </trkpt>
      <trkpt lat="49.59596" lon="4.95487">
        <ele>205.38</ele>
        <time>2020-07-23T07:55:26Z</time>
      </trkpt>
      <trkpt lat="49.59578" lon="4.95487">
        <ele>207.78</ele>
        <time>2020-07-23T07:55:44Z</time>
      </trkpt>
      <trkpt lat="49.59567" lon="4.95488">
        <ele>207.78</ele>
        <time>2020-07-23T07:55:57Z</time>
      </trkpt>
      <trkpt lat="49.59549" lon="4.95493">
        <ele>206.34</ele>
        <time>2020-07-23T07:56:13Z</time>
      </trkpt>
      <trkpt lat="49.59534" lon="4.95497">
        <ele>204.42</ele>
        <time>2020-07-23T07:56:27Z</time>
      </trkpt>
      <trkpt lat="49.59518" lon="4.955">
        <ele>203.46</ele>
        <time>2020-07-23T07:56:41Z</time>
      </trkpt>
      <trkpt lat="49.59505" lon="4.95502">
        <ele>203.46</ele>
        <time>2020-07-23T07:56:53Z</time>
      </trkpt>
      <trkpt lat="49.5949" lon="4.95506">
        <ele>205.38</ele>
        <time>2020-07-23T07:57:08Z</time>
      </trkpt>
      <trkpt lat="49.59474" lon="4.95504">
        <ele>206.34</ele>
        <time>2020-07-23T07:57:24Z</time>
      </trkpt>
      <trkpt lat="49.59457" lon="4.95502">
        <ele>206.34</ele>
        <time>2020-07-23T07:57:40Z</time>
      </trkpt>
      <trkpt lat="49.59439" lon="4.95494">
        <ele>205.38</ele>
        <time>2020-07-23T07:57:56Z</time>
      </trkpt>
      <trkpt lat="49.59434" lon="4.95488">
        <ele>206.82</ele>
        <time>2020-07-23T07:58:03Z</time>
      </trkpt>
      <trkpt lat="49.59435" lon="4.95486">
        <ele>206.82</ele>
        <time>2020-07-23T07:58:05Z</time>
      </trkpt>
      <trkpt lat="49.59441" lon="4.95483">
        <ele>208.26</ele>
        <time>2020-07-23T07:58:12Z</time>
      </trkpt>
      <trkpt lat="49.5946" lon="4.95484">
        <ele>212.59</ele>
        <time>2020-07-23T07:58:29Z</time>
      </trkpt>
      <trkpt lat="49.59472" lon="4.95476">
        <ele>212.59</ele>
        <time>2020-07-23T07:58:43Z</time>
      </trkpt>
      <trkpt lat="49.59489" lon="4.95469">
        <ele>210.67</ele>
        <time>2020-07-23T07:59:00Z</time>
      </trkpt>
      <trkpt lat="49.59508" lon="4.95467">
        <ele>213.55</ele>
        <time>2020-07-23T07:59:17Z</time>
      </trkpt>
      <trkpt lat="49.59525" lon="4.95461">
        <ele>213.07</ele>
        <time>2020-07-23T07:59:33Z</time>
      </trkpt>
      <trkpt lat="49.59528" lon="4.9546">
        <ele>213.07</ele>
        <time>2020-07-23T07:59:36Z</time>
      </trkpt>
      <trkpt lat="49.59547" lon="4.95458">
        <ele>213.55</ele>
        <time>2020-07-23T07:59:52Z</time>
      </trkpt>
      <trkpt lat="49.59562" lon="4.95455">
        <ele>213.55</ele>
        <time>2020-07-23T08:00:07Z</time>
      </trkpt>
      <trkpt lat="49.59584" lon="4.95453">
        <ele>213.55</ele>
        <time>2020-07-23T08:00:26Z</time>
      </trkpt>
      <trkpt lat="49.596" lon="4.9545">
        <ele>214.51</ele>
        <time>2020-07-23T08:00:42Z</time>
      </trkpt>
      <trkpt lat="49.59619" lon="4.95449">
        <ele>213.07</ele>
        <time>2020-07-23T08:00:59Z</time>
      </trkpt>
      <trkpt lat="49.59625" lon="4.95447">
        <ele>211.15</ele>
        <time>2020-07-23T08:01:09Z</time>
      </trkpt>
      <trkpt lat="49.59609" lon="4.95436">
        <ele>209.7</ele>
        <time>2020-07-23T08:01:26Z</time>
      </trkpt>
      <trkpt lat="49.59595" lon="4.95432">
        <ele>209.22</ele>
        <time>2020-07-23T08:01:39Z</time>
      </trkpt>
      <trkpt lat="49.59578" lon="4.95431">
        <ele>208.26</ele>
        <time>2020-07-23T08:01:53Z</time>
      </trkpt>
      <trkpt lat="49.59565" lon="4.95429">
        <ele>208.26</ele>
        <time>2020-07-23T08:02:07Z</time>
      </trkpt>
      <trkpt lat="49.59563" lon="4.95429">
        <ele>208.74</ele>
        <time>2020-07-23T08:02:09Z</time>
      </trkpt>
      <trkpt lat="49.59544" lon="4.95426">
        <ele>211.15</ele>
        <time>2020-07-23T08:02:26Z</time>
      </trkpt>
      <trkpt lat="49.59542" lon="4.95425">
        <ele>211.63</ele>
        <time>2020-07-23T08:02:30Z</time>
      </trkpt>
      <trkpt lat="49.59534" lon="4.95416">
        <ele>211.63</ele>
        <time>2020-07-23T08:02:40Z</time>
      </trkpt>
      <trkpt lat="49.59539" lon="4.95403">
        <ele>213.55</ele>
        <time>2020-07-23T08:02:51Z</time>
      </trkpt>
      <trkpt lat="49.59554" lon="4.95395">
        <ele>216.91</ele>
        <time>2020-07-23T08:03:06Z</time>
      </trkpt>
      <trkpt lat="49.59566" lon="4.95388">
        <ele>218.36</ele>
        <time>2020-07-23T08:03:19Z</time>
      </trkpt>
      <trkpt lat="49.59582" lon="4.9538">
        <ele>220.28</ele>
        <time>2020-07-23T08:03:34Z</time>
      </trkpt>
      <trkpt lat="49.59596" lon="4.95371">
        <ele>221.72</ele>
        <time>2020-07-23T08:03:49Z</time>
      </trkpt>
      <trkpt lat="49.59613" lon="4.95362">
        <ele>223.16</ele>
        <time>2020-07-23T08:04:04Z</time>
      </trkpt>
      <trkpt lat="49.59616" lon="4.95362">
        <ele>223.64</ele>
        <time>2020-07-23T08:04:08Z</time>
      </trkpt>
      <trkpt lat="49.59626" lon="4.95356">
        <ele>224.61</ele>
        <time>2020-07-23T08:04:18Z</time>
      </trkpt>
      <trkpt lat="49.5964" lon="4.9535">
        <ele>226.05</ele>
        <time>2020-07-23T08:04:32Z</time>
      </trkpt>
      <trkpt lat="49.59652" lon="4.95346">
        <ele>229.41</ele>
        <time>2020-07-23T08:04:46Z</time>
      </trkpt>
      <trkpt lat="49.59664" lon="4.95337">
        <ele>230.37</ele>
        <time>2020-07-23T08:04:59Z</time>
      </trkpt>
      <trkpt lat="49.59676" lon="4.95327">
        <ele>228.93</ele>
        <time>2020-07-23T08:05:12Z</time>
      </trkpt>
      <trkpt lat="49.59686" lon="4.95321">
        <ele>230.37</ele>
        <time>2020-07-23T08:05:23Z</time>
      </trkpt>
      <trkpt lat="49.59698" lon="4.95312">
        <ele>230.85</ele>
        <time>2020-07-23T08:05:37Z</time>
      </trkpt>
      <trkpt lat="49.59712" lon="4.95302">
        <ele>233.26</ele>
        <time>2020-07-23T08:05:52Z</time>
      </trkpt>
      <trkpt lat="49.59727" lon="4.95294">
        <ele>234.22</ele>
        <time>2020-07-23T08:06:05Z</time>
      </trkpt>
      <trkpt lat="49.59731" lon="4.95292">
        <ele>235.66</ele>
        <time>2020-07-23T08:06:11Z</time>
      </trkpt>
      <trkpt lat="49.59746" lon="4.9528">
        <ele>239.99</ele>
        <time>2020-07-23T08:06:29Z</time>
      </trkpt>
      <trkpt lat="49.5976" lon="4.95265">
        <ele>242.87</ele>
        <time>2020-07-23T08:06:46Z</time>
      </trkpt>
      <trkpt lat="49.59775" lon="4.95249">
        <ele>240.47</ele>
        <time>2020-07-23T08:07:03Z</time>
      </trkpt>
      <trkpt lat="49.59785" lon="4.95239">
        <ele>239.51</ele>
        <time>2020-07-23T08:07:16Z</time>
      </trkpt>
      <trkpt lat="49.59802" lon="4.95223">
        <ele>242.87</ele>
        <time>2020-07-23T08:07:36Z</time>
      </trkpt>
      <trkpt lat="49.59819" lon="4.95209">
        <ele>245.27</ele>
        <time>2020-07-23T08:07:54Z</time>
      </trkpt>
      <trkpt lat="49.59835" lon="4.95198">
        <ele>247.68</ele>
        <time>2020-07-23T08:08:14Z</time>
      </trkpt>
      <trkpt lat="49.59849" lon="4.95192">
        <ele>250.56</ele>
        <time>2020-07-23T08:08:33Z</time>
      </trkpt>
      <trkpt lat="49.5987" lon="4.95181">
        <ele>250.56</ele>
        <time>2020-07-23T08:08:50Z</time>
      </trkpt>
      <trkpt lat="49.59887" lon="4.95176">
        <ele>250.08</ele>
        <time>2020-07-23T08:09:08Z</time>
      </trkpt>
      <trkpt lat="49.59902" lon="4.95178">
        <ele>249.12</ele>
        <time>2020-07-23T08:09:26Z</time>
      </trkpt>
      <trkpt lat="49.5992" lon="4.9518">
        <ele>248.16</ele>
        <time>2020-07-23T08:09:46Z</time>
      </trkpt>
      <trkpt lat="49.59936" lon="4.95181">
        <ele>248.64</ele>
        <time>2020-07-23T08:10:03Z</time>
      </trkpt>
      <trkpt lat="49.59952" lon="4.9519">
        <ele>252</ele>
        <time>2020-07-23T08:10:18Z</time>
      </trkpt>
      <trkpt lat="49.59973" lon="4.95193">
        <ele>252.96</ele>
        <time>2020-07-23T08:10:36Z</time>
      </trkpt>
      <trkpt lat="49.59985" lon="4.95198">
        <ele>255.37</ele>
        <time>2020-07-23T08:10:50Z</time>
      </trkpt>
      <trkpt lat="49.60005" lon="4.95197">
        <ele>257.29</ele>
        <time>2020-07-23T08:11:10Z</time>
      </trkpt>
      <trkpt lat="49.60031" lon="4.95198">
        <ele>260.65</ele>
        <time>2020-07-23T08:11:31Z</time>
      </trkpt>
      <trkpt lat="49.60045" lon="4.95197">
        <ele>261.62</ele>
        <time>2020-07-23T08:11:47Z</time>
      </trkpt>
      <trkpt lat="49.60058" lon="4.95189">
        <ele>260.65</ele>
        <time>2020-07-23T08:11:57Z</time>
      </trkpt>
      <trkpt lat="49.60075" lon="4.95176">
        <ele>260.17</ele>
        <time>2020-07-23T08:12:13Z</time>
      </trkpt>
      <trkpt lat="49.60087" lon="4.95159">
        <ele>259.21</ele>
        <time>2020-07-23T08:12:32Z</time>
      </trkpt>
      <trkpt lat="49.60095" lon="4.95141">
        <ele>257.29</ele>
        <time>2020-07-23T08:12:44Z</time>
      </trkpt>
      <trkpt lat="49.60109" lon="4.95113">
        <ele>256.81</ele>
        <time>2020-07-23T08:13:04Z</time>
      </trkpt>
      <trkpt lat="49.60115" lon="4.95098">
        <ele>262.1</ele>
        <time>2020-07-23T08:13:20Z</time>
      </trkpt>
      <trkpt lat="49.60122" lon="4.95074">
        <ele>265.94</ele>
        <time>2020-07-23T08:13:36Z</time>
      </trkpt>
      <trkpt lat="49.60126" lon="4.95049">
        <ele>267.86</ele>
        <time>2020-07-23T08:13:54Z</time>
      </trkpt>
      <trkpt lat="49.60135" lon="4.95014">
        <ele>271.23</ele>
        <time>2020-07-23T08:14:14Z</time>
      </trkpt>
      <trkpt lat="49.60141" lon="4.94984">
        <ele>271.71</ele>
        <time>2020-07-23T08:14:34Z</time>
      </trkpt>
      <trkpt lat="49.60146" lon="4.94959">
        <ele>271.71</ele>
        <time>2020-07-23T08:14:51Z</time>
      </trkpt>
      <trkpt lat="49.60149" lon="4.94938">
        <ele>268.83</ele>
        <time>2020-07-23T08:15:07Z</time>
      </trkpt>
      <trkpt lat="49.60155" lon="4.94909">
        <ele>268.83</ele>
        <time>2020-07-23T08:15:26Z</time>
      </trkpt>
      <trkpt lat="49.60164" lon="4.94875">
        <ele>270.75</ele>
        <time>2020-07-23T08:15:43Z</time>
      </trkpt>
      <trkpt lat="49.60169" lon="4.94845">
        <ele>270.27</ele>
        <time>2020-07-23T08:16:00Z</time>
      </trkpt>
      <trkpt lat="49.60174" lon="4.94824">
        <ele>270.27</ele>
        <time>2020-07-23T08:16:16Z</time>
      </trkpt>
      <trkpt lat="49.60179" lon="4.94798">
        <ele>271.71</ele>
        <time>2020-07-23T08:16:33Z</time>
      </trkpt>
      <trkpt lat="49.60184" lon="4.94774">
        <ele>271.71</ele>
        <time>2020-07-23T08:16:51Z</time>
      </trkpt>
      <trkpt lat="49.60193" lon="4.9474">
        <ele>271.71</ele>
        <time>2020-07-23T08:17:08Z</time>
      </trkpt>
      <trkpt lat="49.60199" lon="4.94711">
        <ele>273.63</ele>
        <time>2020-07-23T08:17:27Z</time>
      </trkpt>
      <trkpt lat="49.60203" lon="4.94701">
        <ele>274.59</ele>
        <time>2020-07-23T08:17:42Z</time>
      </trkpt>
      <trkpt lat="49.60206" lon="4.94713">
        <ele>276.52</ele>
        <time>2020-07-23T08:17:55Z</time>
      </trkpt>
      <trkpt lat="49.60207" lon="4.94733">
        <ele>275.07</ele>
        <time>2020-07-23T08:18:11Z</time>
      </trkpt>
      <trkpt lat="49.60206" lon="4.94751">
        <ele>271.71</ele>
        <time>2020-07-23T08:18:27Z</time>
      </trkpt>
      <trkpt lat="49.60207" lon="4.94773">
        <ele>270.75</ele>
        <time>2020-07-23T08:18:43Z</time>
      </trkpt>
      <trkpt lat="49.60206" lon="4.94794">
        <ele>270.75</ele>
        <time>2020-07-23T08:18:58Z</time>
      </trkpt>
      <trkpt lat="49.60204" lon="4.94818">
        <ele>270.75</ele>
        <time>2020-07-23T08:19:15Z</time>
      </trkpt>
      <trkpt lat="49.60201" lon="4.9484">
        <ele>267.38</ele>
        <time>2020-07-23T08:19:31Z</time>
      </trkpt>
      <trkpt lat="49.60197" lon="4.94856">
        <ele>264.02</ele>
        <time>2020-07-23T08:19:45Z</time>
      </trkpt>
      <trkpt lat="49.60194" lon="4.9488">
        <ele>261.14</ele>
        <time>2020-07-23T08:20:02Z</time>
      </trkpt>
      <trkpt lat="49.60188" lon="4.94904">
        <ele>258.25</ele>
        <time>2020-07-23T08:20:19Z</time>
      </trkpt>
      <trkpt lat="49.60183" lon="4.94926">
        <ele>254.41</ele>
        <time>2020-07-23T08:20:36Z</time>
      </trkpt>
      <trkpt lat="49.60179" lon="4.94948">
        <ele>252.48</ele>
        <time>2020-07-23T08:20:52Z</time>
      </trkpt>
      <trkpt lat="49.60178" lon="4.94969">
        <ele>250.56</ele>
        <time>2020-07-23T08:21:10Z</time>
      </trkpt>
      <trkpt lat="49.60178" lon="4.94988">
        <ele>250.08</ele>
        <time>2020-07-23T08:21:24Z</time>
      </trkpt>
      <trkpt lat="49.60177" lon="4.95008">
        <ele>249.12</ele>
        <time>2020-07-23T08:21:42Z</time>
      </trkpt>
      <trkpt lat="49.60181" lon="4.95028">
        <ele>247.2</ele>
        <time>2020-07-23T08:21:56Z</time>
      </trkpt>
      <trkpt lat="49.60181" lon="4.95032">
        <ele>246.23</ele>
        <time>2020-07-23T08:22:20Z</time>
      </trkpt>
      <trkpt lat="49.60184" lon="4.95035">
        <ele>245.27</ele>
        <time>2020-07-23T08:22:36Z</time>
      </trkpt>
      <trkpt lat="49.60185" lon="4.95038">
        <ele>245.27</ele>
        <time>2020-07-23T08:22:58Z</time>
      </trkpt>
      <trkpt lat="49.60184" lon="4.95036">
        <ele>243.83</ele>
        <time>2020-07-23T08:23:10Z</time>
      </trkpt>
      <trkpt lat="49.60187" lon="4.95035">
        <ele>245.75</ele>
        <time>2020-07-23T08:23:39Z</time>
      </trkpt>
      <trkpt lat="49.60187" lon="4.95034">
        <ele>245.75</ele>
        <time>2020-07-23T08:24:09Z</time>
      </trkpt>
      <trkpt lat="49.60184" lon="4.95039">
        <ele>241.91</ele>
        <time>2020-07-23T08:24:28Z</time>
      </trkpt>
      <trkpt lat="49.60184" lon="4.95041">
        <ele>241.91</ele>
        <time>2020-07-23T08:24:43Z</time>
      </trkpt>
      <trkpt lat="49.60185" lon="4.95041">
        <ele>240.95</ele>
        <time>2020-07-23T08:25:00Z</time>
      </trkpt>
      <trkpt lat="49.60183" lon="4.95041">
        <ele>240.47</ele>
        <time>2020-07-23T08:25:28Z</time>
      </trkpt>
      <trkpt lat="49.60183" lon="4.95041">
        <ele>240.47</ele>
        <time>2020-07-23T08:26:04Z</time>
      </trkpt>
      <trkpt lat="49.60183" lon="4.95041">
        <ele>240.47</ele>
        <time>2020-07-23T08:26:37Z</time>
      </trkpt>
      <trkpt lat="49.60183" lon="4.95041">
        <ele>239.99</ele>
        <time>2020-07-23T08:27:12Z</time>
      </trkpt>
      <trkpt lat="49.60183" lon="4.95041">
        <ele>239.99</ele>
        <time>2020-07-23T08:27:40Z</time>
      </trkpt>
      <trkpt lat="49.60182" lon="4.9504">
        <ele>239.99</ele>
        <time>2020-07-23T08:28:09Z</time>
      </trkpt>
      <trkpt lat="49.60182" lon="4.95038">
        <ele>239.51</ele>
        <time>2020-07-23T08:28:45Z</time>
      </trkpt>
      <trkpt lat="49.60182" lon="4.95038">
        <ele>239.51</ele>
        <time>2020-07-23T08:29:15Z</time>
      </trkpt>
      <trkpt lat="49.60182" lon="4.95038">
        <ele>239.51</ele>
        <time>2020-07-23T08:29:49Z</time>
      </trkpt>
      <trkpt lat="49.60181" lon="4.95038">
        <ele>239.51</ele>
        <time>2020-07-23T08:30:23Z</time>
      </trkpt>
      <trkpt lat="49.60181" lon="4.95038">
        <ele>239.51</ele>
        <time>2020-07-23T08:31:01Z</time>
      </trkpt>
      <trkpt lat="49.60181" lon="4.95038">
        <ele>239.02</ele>
        <time>2020-07-23T08:31:36Z</time>
      </trkpt>
      <trkpt lat="49.6018" lon="4.95038">
        <ele>239.02</ele>
        <time>2020-07-23T08:32:20Z</time>
      </trkpt>
      <trkpt lat="49.6018" lon="4.95038">
        <ele>239.02</ele>
        <time>2020-07-23T08:32:58Z</time>
      </trkpt>
      <trkpt lat="49.6018" lon="4.95038">
        <ele>239.02</ele>
        <time>2020-07-23T08:33:33Z</time>
      </trkpt>
      <trkpt lat="49.60179" lon="4.95039">
        <ele>239.51</ele>
        <time>2020-07-23T08:34:10Z</time>
      </trkpt>
      <trkpt lat="49.60178" lon="4.95039">
        <ele>239.99</ele>
        <time>2020-07-23T08:34:50Z</time>
      </trkpt>
      <trkpt lat="49.60177" lon="4.95038">
        <ele>240.47</ele>
        <time>2020-07-23T08:35:27Z</time>
      </trkpt>
      <trkpt lat="49.60178" lon="4.9504">
        <ele>239.02</ele>
        <time>2020-07-23T08:36:03Z</time>
      </trkpt>
      <trkpt lat="49.60178" lon="4.95039">
        <ele>237.58</ele>
        <time>2020-07-23T08:36:40Z</time>
      </trkpt>
      <trkpt lat="49.60179" lon="4.9504">
        <ele>237.1</ele>
        <time>2020-07-23T08:37:13Z</time>
      </trkpt>
      <trkpt lat="49.6018" lon="4.95039">
        <ele>236.62</ele>
        <time>2020-07-23T08:37:52Z</time>
      </trkpt>
      <trkpt lat="49.60181" lon="4.95039">
        <ele>235.66</ele>
        <time>2020-07-23T08:38:20Z</time>
      </trkpt>
      <trkpt lat="49.60181" lon="4.95039">
        <ele>235.18</ele>
        <time>2020-07-23T08:38:45Z</time>
      </trkpt>
      <trkpt lat="49.6018" lon="4.9504">
        <ele>234.7</ele>
        <time>2020-07-23T08:39:06Z</time>
      </trkpt>
      <trkpt lat="49.60179" lon="4.95044">
        <ele>235.18</ele>
        <time>2020-07-23T08:39:19Z</time>
      </trkpt>
      <trkpt lat="49.60181" lon="4.95057">
        <ele>235.18</ele>
        <time>2020-07-23T08:39:32Z</time>
      </trkpt>
      <trkpt lat="49.60181" lon="4.95064">
        <ele>234.22</ele>
        <time>2020-07-23T08:39:36Z</time>
      </trkpt>
      <trkpt lat="49.60182" lon="4.95069">
        <ele>234.22</ele>
        <time>2020-07-23T08:39:40Z</time>
      </trkpt>
      <trkpt lat="49.60181" lon="4.95088">
        <ele>235.18</ele>
        <time>2020-07-23T08:39:55Z</time>
      </trkpt>
      <trkpt lat="49.6018" lon="4.95107">
        <ele>233.26</ele>
        <time>2020-07-23T08:40:09Z</time>
      </trkpt>
      <trkpt lat="49.60178" lon="4.95124">
        <ele>230.85</ele>
        <time>2020-07-23T08:40:22Z</time>
      </trkpt>
      <trkpt lat="49.60177" lon="4.95132">
        <ele>229.89</ele>
        <time>2020-07-23T08:40:28Z</time>
      </trkpt>
      <trkpt lat="49.60174" lon="4.95151">
        <ele>227.49</ele>
        <time>2020-07-23T08:40:40Z</time>
      </trkpt>
      <trkpt lat="49.60171" lon="4.9517">
        <ele>224.61</ele>
        <time>2020-07-23T08:40:54Z</time>
      </trkpt>
      <trkpt lat="49.60171" lon="4.95174">
        <ele>223.64</ele>
        <time>2020-07-23T08:40:56Z</time>
      </trkpt>
      <trkpt lat="49.60168" lon="4.95192">
        <ele>219.32</ele>
        <time>2020-07-23T08:41:10Z</time>
      </trkpt>
      <trkpt lat="49.60168" lon="4.95199">
        <ele>217.88</ele>
        <time>2020-07-23T08:41:15Z</time>
      </trkpt>
      <trkpt lat="49.60163" lon="4.9522">
        <ele>204.9</ele>
        <time>2020-07-23T08:41:32Z</time>
      </trkpt>
      <trkpt lat="49.6016" lon="4.95241">
        <ele>198.65</ele>
        <time>2020-07-23T08:41:48Z</time>
      </trkpt>
      <trkpt lat="49.60152" lon="4.95268">
        <ele>188.56</ele>
        <time>2020-07-23T08:42:07Z</time>
      </trkpt>
      <trkpt lat="49.60151" lon="4.95275">
        <ele>188.08</ele>
        <time>2020-07-23T08:42:12Z</time>
      </trkpt>
      <trkpt lat="49.60151" lon="4.95278">
        <ele>186.63</ele>
        <time>2020-07-23T08:42:15Z</time>
      </trkpt>
      <trkpt lat="49.60154" lon="4.95295">
        <ele>186.15</ele>
        <time>2020-07-23T08:42:29Z</time>
      </trkpt>
      <trkpt lat="49.60146" lon="4.9532">
        <ele>178.46</ele>
        <time>2020-07-23T08:42:47Z</time>
      </trkpt>
      <trkpt lat="49.60142" lon="4.95328">
        <ele>171.25</ele>
        <time>2020-07-23T08:43:04Z</time>
      </trkpt>
      <trkpt lat="49.60143" lon="4.95347">
        <ele>170.77</ele>
        <time>2020-07-23T08:43:22Z</time>
      </trkpt>
      <trkpt lat="49.60137" lon="4.95366">
        <ele>169.33</ele>
        <time>2020-07-23T08:43:36Z</time>
      </trkpt>
      <trkpt lat="49.60141" lon="4.95371">
        <ele>170.29</ele>
        <time>2020-07-23T08:43:52Z</time>
      </trkpt>
      <trkpt lat="49.60136" lon="4.95376">
        <ele>169.33</ele>
        <time>2020-07-23T08:44:08Z</time>
      </trkpt>
      <trkpt lat="49.60138" lon="4.95398">
        <ele>169.81</ele>
        <time>2020-07-23T08:44:25Z</time>
      </trkpt>
      <trkpt lat="49.60148" lon="4.95428">
        <ele>176.54</ele>
        <time>2020-07-23T08:44:44Z</time>
      </trkpt>
      <trkpt lat="49.60164" lon="4.95443">
        <ele>199.61</ele>
        <time>2020-07-23T08:44:55Z</time>
      </trkpt>
      <trkpt lat="49.60167" lon="4.95463">
        <ele>202.01</ele>
        <time>2020-07-23T08:45:10Z</time>
      </trkpt>
      <trkpt lat="49.60174" lon="4.95485">
        <ele>201.53</ele>
        <time>2020-07-23T08:45:27Z</time>
      </trkpt>
      <trkpt lat="49.60181" lon="4.95504">
        <ele>200.09</ele>
        <time>2020-07-23T08:45:42Z</time>
      </trkpt>
      <trkpt lat="49.60181" lon="4.95515">
        <ele>197.69</ele>
        <time>2020-07-23T08:45:52Z</time>
      </trkpt>
      <trkpt lat="49.60193" lon="4.95517">
        <ele>192.4</ele>
        <time>2020-07-23T08:46:06Z</time>
      </trkpt>
      <trkpt lat="49.60203" lon="4.95514">
        <ele>191.92</ele>
        <time>2020-07-23T08:46:19Z</time>
      </trkpt>
      <trkpt lat="49.60217" lon="4.95514">
        <ele>191.92</ele>
        <time>2020-07-23T08:46:33Z</time>
      </trkpt>
      <trkpt lat="49.60235" lon="4.95512">
        <ele>189.52</ele>
        <time>2020-07-23T08:46:50Z</time>
      </trkpt>
      <trkpt lat="49.60237" lon="4.95513">
        <ele>189.04</ele>
        <time>2020-07-23T08:46:52Z</time>
      </trkpt>
      <trkpt lat="49.60255" lon="4.95526">
        <ele>190.48</ele>
        <time>2020-07-23T08:47:10Z</time>
      </trkpt>
      <trkpt lat="49.60259" lon="4.9553">
        <ele>190.48</ele>
        <time>2020-07-23T08:47:15Z</time>
      </trkpt>
      <trkpt lat="49.60266" lon="4.95539">
        <ele>190.48</ele>
        <time>2020-07-23T08:47:22Z</time>
      </trkpt>
      <trkpt lat="49.60268" lon="4.95545">
        <ele>190.48</ele>
        <time>2020-07-23T08:47:26Z</time>
      </trkpt>
      <trkpt lat="49.60277" lon="4.95552">
        <ele>191.44</ele>
        <time>2020-07-23T08:47:38Z</time>
      </trkpt>
      <trkpt lat="49.60284" lon="4.95553">
        <ele>191.44</ele>
        <time>2020-07-23T08:47:43Z</time>
      </trkpt>
      <trkpt lat="49.60303" lon="4.95542">
        <ele>192.4</ele>
        <time>2020-07-23T08:47:59Z</time>
      </trkpt>
      <trkpt lat="49.60321" lon="4.95534">
        <ele>195.28</ele>
        <time>2020-07-23T08:48:14Z</time>
      </trkpt>
      <trkpt lat="49.60326" lon="4.9553">
        <ele>196.73</ele>
        <time>2020-07-23T08:48:22Z</time>
      </trkpt>
      <trkpt lat="49.60331" lon="4.95532">
        <ele>197.21</ele>
        <time>2020-07-23T08:48:26Z</time>
      </trkpt>
      <trkpt lat="49.60344" lon="4.95538">
        <ele>201.05</ele>
        <time>2020-07-23T08:48:41Z</time>
      </trkpt>
      <trkpt lat="49.60364" lon="4.95543">
        <ele>199.13</ele>
        <time>2020-07-23T08:48:58Z</time>
      </trkpt>
      <trkpt lat="49.60376" lon="4.95538">
        <ele>193.36</ele>
        <time>2020-07-23T08:49:14Z</time>
      </trkpt>
      <trkpt lat="49.60385" lon="4.95539">
        <ele>190.96</ele>
        <time>2020-07-23T08:49:22Z</time>
      </trkpt>
      <trkpt lat="49.60408" lon="4.95547">
        <ele>191.92</ele>
        <time>2020-07-23T08:49:39Z</time>
      </trkpt>
      <trkpt lat="49.60424" lon="4.95538">
        <ele>194.32</ele>
        <time>2020-07-23T08:49:53Z</time>
      </trkpt>
      <trkpt lat="49.60438" lon="4.95526">
        <ele>196.25</ele>
        <time>2020-07-23T08:50:11Z</time>
      </trkpt>
      <trkpt lat="49.60456" lon="4.95514">
        <ele>199.61</ele>
        <time>2020-07-23T08:50:28Z</time>
      </trkpt>
      <trkpt lat="49.60464" lon="4.95505">
        <ele>200.57</ele>
        <time>2020-07-23T08:50:38Z</time>
      </trkpt>
      <trkpt lat="49.60486" lon="4.95494">
        <ele>202.01</ele>
        <time>2020-07-23T08:50:55Z</time>
      </trkpt>
      <trkpt lat="49.60499" lon="4.95489">
        <ele>202.01</ele>
        <time>2020-07-23T08:51:11Z</time>
      </trkpt>
      <trkpt lat="49.60518" lon="4.95474">
        <ele>202.49</ele>
        <time>2020-07-23T08:51:28Z</time>
      </trkpt>
      <trkpt lat="49.60528" lon="4.95459">
        <ele>202.98</ele>
        <time>2020-07-23T08:51:40Z</time>
      </trkpt>
      <trkpt lat="49.60536" lon="4.95456">
        <ele>200.57</ele>
        <time>2020-07-23T08:51:46Z</time>
      </trkpt>
      <trkpt lat="49.60555" lon="4.95452">
        <ele>197.21</ele>
        <time>2020-07-23T08:52:01Z</time>
      </trkpt>
      <trkpt lat="49.60569" lon="4.95448">
        <ele>197.69</ele>
        <time>2020-07-23T08:52:15Z</time>
      </trkpt>
      <trkpt lat="49.60584" lon="4.95441">
        <ele>198.17</ele>
        <time>2020-07-23T08:52:32Z</time>
      </trkpt>
      <trkpt lat="49.60592" lon="4.95437">
        <ele>198.65</ele>
        <time>2020-07-23T08:52:46Z</time>
      </trkpt>
      <trkpt lat="49.60595" lon="4.95436">
        <ele>197.21</ele>
        <time>2020-07-23T08:52:55Z</time>
      </trkpt>
      <trkpt lat="49.60609" lon="4.9544">
        <ele>195.28</ele>
        <time>2020-07-23T08:53:09Z</time>
      </trkpt>
      <trkpt lat="49.60615" lon="4.95436">
        <ele>194.8</ele>
        <time>2020-07-23T08:53:15Z</time>
      </trkpt>
      <trkpt lat="49.60623" lon="4.95432">
        <ele>193.84</ele>
        <time>2020-07-23T08:53:23Z</time>
      </trkpt>
      <trkpt lat="49.6064" lon="4.9543">
        <ele>191.44</ele>
        <time>2020-07-23T08:53:40Z</time>
      </trkpt>
      <trkpt lat="49.60657" lon="4.95424">
        <ele>189.52</ele>
        <time>2020-07-23T08:53:54Z</time>
      </trkpt>
      <trkpt lat="49.60669" lon="4.95418">
        <ele>188.08</ele>
        <time>2020-07-23T08:54:06Z</time>
      </trkpt>
      <trkpt lat="49.60683" lon="4.95414">
        <ele>188.08</ele>
        <time>2020-07-23T08:54:19Z</time>
      </trkpt>
      <trkpt lat="49.60697" lon="4.95417">
        <ele>187.11</ele>
        <time>2020-07-23T08:54:34Z</time>
      </trkpt>
      <trkpt lat="49.60715" lon="4.95414">
        <ele>187.11</ele>
        <time>2020-07-23T08:54:48Z</time>
      </trkpt>
      <trkpt lat="49.60731" lon="4.95411">
        <ele>186.15</ele>
        <time>2020-07-23T08:55:05Z</time>
      </trkpt>
      <trkpt lat="49.60732" lon="4.95412">
        <ele>185.67</ele>
        <time>2020-07-23T08:55:06Z</time>
      </trkpt>
      <trkpt lat="49.60739" lon="4.95413">
        <ele>185.19</ele>
        <time>2020-07-23T08:55:12Z</time>
      </trkpt>
      <trkpt lat="49.60759" lon="4.95412">
        <ele>187.59</ele>
        <time>2020-07-23T08:55:30Z</time>
      </trkpt>
      <trkpt lat="49.60763" lon="4.95412">
        <ele>187.59</ele>
        <time>2020-07-23T08:55:35Z</time>
      </trkpt>
      <trkpt lat="49.60782" lon="4.95416">
        <ele>188.56</ele>
        <time>2020-07-23T08:55:52Z</time>
      </trkpt>
      <trkpt lat="49.60798" lon="4.95421">
        <ele>190.96</ele>
        <time>2020-07-23T08:56:09Z</time>
      </trkpt>
      <trkpt lat="49.60814" lon="4.95421">
        <ele>191.44</ele>
        <time>2020-07-23T08:56:24Z</time>
      </trkpt>
      <trkpt lat="49.60828" lon="4.95429">
        <ele>191.44</ele>
        <time>2020-07-23T08:56:40Z</time>
      </trkpt>
      <trkpt lat="49.60842" lon="4.95445">
        <ele>191.44</ele>
        <time>2020-07-23T08:56:56Z</time>
      </trkpt>
      <trkpt lat="49.60843" lon="4.95448">
        <ele>191.44</ele>
        <time>2020-07-23T08:56:58Z</time>
      </trkpt>
      <trkpt lat="49.60853" lon="4.95454">
        <ele>190.48</ele>
        <time>2020-07-23T08:57:08Z</time>
      </trkpt>
      <trkpt lat="49.60867" lon="4.95454">
        <ele>188.08</ele>
        <time>2020-07-23T08:57:25Z</time>
      </trkpt>
      <trkpt lat="49.60872" lon="4.95458">
        <ele>188.08</ele>
        <time>2020-07-23T08:57:43Z</time>
      </trkpt>
      <trkpt lat="49.60877" lon="4.9546">
        <ele>188.56</ele>
        <time>2020-07-23T08:57:57Z</time>
      </trkpt>
      <trkpt lat="49.60879" lon="4.95459">
        <ele>188.08</ele>
        <time>2020-07-23T08:58:18Z</time>
      </trkpt>
      <trkpt lat="49.60885" lon="4.95463">
        <ele>188.08</ele>
        <time>2020-07-23T08:58:32Z</time>
      </trkpt>
      <trkpt lat="49.60889" lon="4.95465">
        <ele>188.08</ele>
        <time>2020-07-23T08:58:43Z</time>
      </trkpt>
      <trkpt lat="49.60908" lon="4.95469">
        <ele>185.19</ele>
        <time>2020-07-23T08:59:01Z</time>
      </trkpt>
      <trkpt lat="49.60927" lon="4.95475">
        <ele>184.23</ele>
        <time>2020-07-23T08:59:16Z</time>
      </trkpt>
      <trkpt lat="49.60942" lon="4.95486">
        <ele>185.67</ele>
        <time>2020-07-23T08:59:32Z</time>
      </trkpt>
      <trkpt lat="49.60962" lon="4.95493">
        <ele>186.15</ele>
        <time>2020-07-23T08:59:48Z</time>
      </trkpt>
      <trkpt lat="49.60976" lon="4.95508">
        <ele>188.08</ele>
        <time>2020-07-23T09:00:03Z</time>
      </trkpt>
      <trkpt lat="49.60988" lon="4.95514">
        <ele>190.48</ele>
        <time>2020-07-23T09:00:17Z</time>
      </trkpt>
      <trkpt lat="49.60991" lon="4.95517">
        <ele>190.96</ele>
        <time>2020-07-23T09:00:20Z</time>
      </trkpt>
      <trkpt lat="49.61008" lon="4.95531">
        <ele>193.84</ele>
        <time>2020-07-23T09:00:36Z</time>
      </trkpt>
      <trkpt lat="49.6102" lon="4.95538">
        <ele>196.25</ele>
        <time>2020-07-23T09:00:50Z</time>
      </trkpt>
      <trkpt lat="49.61026" lon="4.9554">
        <ele>197.21</ele>
        <time>2020-07-23T09:00:55Z</time>
      </trkpt>
      <trkpt lat="49.61048" lon="4.9555">
        <ele>199.13</ele>
        <time>2020-07-23T09:01:14Z</time>
      </trkpt>
      <trkpt lat="49.61054" lon="4.95552">
        <ele>198.65</ele>
        <time>2020-07-23T09:01:20Z</time>
      </trkpt>
      <trkpt lat="49.61074" lon="4.95544">
        <ele>197.69</ele>
        <time>2020-07-23T09:01:37Z</time>
      </trkpt>
      <trkpt lat="49.61085" lon="4.95536">
        <ele>196.73</ele>
        <time>2020-07-23T09:01:54Z</time>
      </trkpt>
      <trkpt lat="49.6109" lon="4.95535">
        <ele>197.21</ele>
        <time>2020-07-23T09:01:58Z</time>
      </trkpt>
      <trkpt lat="49.61105" lon="4.95529">
        <ele>199.13</ele>
        <time>2020-07-23T09:02:10Z</time>
      </trkpt>
      <trkpt lat="49.61128" lon="4.9553">
        <ele>196.73</ele>
        <time>2020-07-23T09:02:27Z</time>
      </trkpt>
      <trkpt lat="49.61135" lon="4.95531">
        <ele>196.25</ele>
        <time>2020-07-23T09:02:37Z</time>
      </trkpt>
      <trkpt lat="49.61147" lon="4.9554">
        <ele>194.32</ele>
        <time>2020-07-23T09:02:51Z</time>
      </trkpt>
      <trkpt lat="49.61158" lon="4.9554">
        <ele>192.88</ele>
        <time>2020-07-23T09:02:59Z</time>
      </trkpt>
      <trkpt lat="49.61173" lon="4.95545">
        <ele>194.32</ele>
        <time>2020-07-23T09:03:14Z</time>
      </trkpt>
      <trkpt lat="49.61189" lon="4.9555">
        <ele>196.73</ele>
        <time>2020-07-23T09:03:28Z</time>
      </trkpt>
      <trkpt lat="49.61207" lon="4.95553">
        <ele>195.77</ele>
        <time>2020-07-23T09:03:44Z</time>
      </trkpt>
      <trkpt lat="49.61227" lon="4.95565">
        <ele>196.25</ele>
        <time>2020-07-23T09:04:03Z</time>
      </trkpt>
      <trkpt lat="49.61237" lon="4.95563">
        <ele>196.73</ele>
        <time>2020-07-23T09:04:12Z</time>
      </trkpt>
      <trkpt lat="49.61242" lon="4.95562">
        <ele>196.73</ele>
        <time>2020-07-23T09:04:17Z</time>
      </trkpt>
      <trkpt lat="49.61246" lon="4.95566">
        <ele>197.69</ele>
        <time>2020-07-23T09:04:21Z</time>
      </trkpt>
      <trkpt lat="49.61253" lon="4.95566">
        <ele>197.69</ele>
        <time>2020-07-23T09:04:27Z</time>
      </trkpt>
      <trkpt lat="49.61258" lon="4.95565">
        <ele>195.77</ele>
        <time>2020-07-23T09:04:31Z</time>
      </trkpt>
      <trkpt lat="49.61269" lon="4.95569">
        <ele>192.4</ele>
        <time>2020-07-23T09:04:43Z</time>
      </trkpt>
      <trkpt lat="49.61279" lon="4.95576">
        <ele>191.44</ele>
        <time>2020-07-23T09:04:53Z</time>
      </trkpt>
      <trkpt lat="49.61288" lon="4.95591">
        <ele>190</ele>
        <time>2020-07-23T09:05:04Z</time>
      </trkpt>
      <trkpt lat="49.61297" lon="4.95601">
        <ele>189.52</ele>
        <time>2020-07-23T09:05:13Z</time>
      </trkpt>
      <trkpt lat="49.61307" lon="4.95602">
        <ele>186.63</ele>
        <time>2020-07-23T09:05:22Z</time>
      </trkpt>
      <trkpt lat="49.6131" lon="4.95601">
        <ele>185.67</ele>
        <time>2020-07-23T09:05:25Z</time>
      </trkpt>
      <trkpt lat="49.61321" lon="4.95608">
        <ele>183.27</ele>
        <time>2020-07-23T09:05:35Z</time>
      </trkpt>
      <trkpt lat="49.61326" lon="4.95611">
        <ele>182.79</ele>
        <time>2020-07-23T09:05:39Z</time>
      </trkpt>
      <trkpt lat="49.61328" lon="4.95614">
        <ele>182.31</ele>
        <time>2020-07-23T09:05:42Z</time>
      </trkpt>
      <trkpt lat="49.61329" lon="4.95621">
        <ele>182.31</ele>
        <time>2020-07-23T09:05:46Z</time>
      </trkpt>
      <trkpt lat="49.6133" lon="4.95626">
        <ele>182.79</ele>
        <time>2020-07-23T09:05:49Z</time>
      </trkpt>
      <trkpt lat="49.61337" lon="4.95646">
        <ele>183.27</ele>
        <time>2020-07-23T09:06:03Z</time>
      </trkpt>
      <trkpt lat="49.61344" lon="4.95669">
        <ele>181.83</ele>
        <time>2020-07-23T09:06:18Z</time>
      </trkpt>
      <trkpt lat="49.61352" lon="4.95691">
        <ele>185.67</ele>
        <time>2020-07-23T09:06:32Z</time>
      </trkpt>
      <trkpt lat="49.61358" lon="4.95699">
        <ele>187.59</ele>
        <time>2020-07-23T09:06:40Z</time>
      </trkpt>
      <trkpt lat="49.61372" lon="4.95722">
        <ele>187.11</ele>
        <time>2020-07-23T09:06:58Z</time>
      </trkpt>
      <trkpt lat="49.61384" lon="4.95734">
        <ele>188.08</ele>
        <time>2020-07-23T09:07:12Z</time>
      </trkpt>
      <trkpt lat="49.61397" lon="4.95749">
        <ele>190</ele>
        <time>2020-07-23T09:07:27Z</time>
      </trkpt>
      <trkpt lat="49.6141" lon="4.95765">
        <ele>190.96</ele>
        <time>2020-07-23T09:07:42Z</time>
      </trkpt>
      <trkpt lat="49.6141" lon="4.95767">
        <ele>190.96</ele>
        <time>2020-07-23T09:07:43Z</time>
      </trkpt>
      <trkpt lat="49.61417" lon="4.95776">
        <ele>190.48</ele>
        <time>2020-07-23T09:07:50Z</time>
      </trkpt>
      <trkpt lat="49.61434" lon="4.95785">
        <ele>187.11</ele>
        <time>2020-07-23T09:08:06Z</time>
      </trkpt>
      <trkpt lat="49.6145" lon="4.95796">
        <ele>185.19</ele>
        <time>2020-07-23T09:08:21Z</time>
      </trkpt>
      <trkpt lat="49.61465" lon="4.95808">
        <ele>185.67</ele>
        <time>2020-07-23T09:08:37Z</time>
      </trkpt>
      <trkpt lat="49.61476" lon="4.95816">
        <ele>185.67</ele>
        <time>2020-07-23T09:08:49Z</time>
      </trkpt>
      <trkpt lat="49.61481" lon="4.95819">
        <ele>186.15</ele>
        <time>2020-07-23T09:08:53Z</time>
      </trkpt>
      <trkpt lat="49.61486" lon="4.95824">
        <ele>186.63</ele>
        <time>2020-07-23T09:08:57Z</time>
      </trkpt>
      <trkpt lat="49.61491" lon="4.95827">
        <ele>186.63</ele>
        <time>2020-07-23T09:09:04Z</time>
      </trkpt>
      <trkpt lat="49.61494" lon="4.9583">
        <ele>187.11</ele>
        <time>2020-07-23T09:09:08Z</time>
      </trkpt>
      <trkpt lat="49.615" lon="4.95832">
        <ele>188.56</ele>
        <time>2020-07-23T09:09:12Z</time>
      </trkpt>
      <trkpt lat="49.61514" lon="4.95841">
        <ele>189.52</ele>
        <time>2020-07-23T09:09:27Z</time>
      </trkpt>
      <trkpt lat="49.61525" lon="4.95845">
        <ele>191.44</ele>
        <time>2020-07-23T09:09:40Z</time>
      </trkpt>
      <trkpt lat="49.6154" lon="4.95854">
        <ele>192.88</ele>
        <time>2020-07-23T09:09:54Z</time>
      </trkpt>
      <trkpt lat="49.61542" lon="4.95855">
        <ele>192.4</ele>
        <time>2020-07-23T09:09:57Z</time>
      </trkpt>
      <trkpt lat="49.61558" lon="4.95862">
        <ele>191.92</ele>
        <time>2020-07-23T09:10:11Z</time>
      </trkpt>
      <trkpt lat="49.61575" lon="4.95874">
        <ele>190</ele>
        <time>2020-07-23T09:10:27Z</time>
      </trkpt>
      <trkpt lat="49.61591" lon="4.95884">
        <ele>188.56</ele>
        <time>2020-07-23T09:10:43Z</time>
      </trkpt>
      <trkpt lat="49.61606" lon="4.95899">
        <ele>192.88</ele>
        <time>2020-07-23T09:11:00Z</time>
      </trkpt>
      <trkpt lat="49.61622" lon="4.95911">
        <ele>197.21</ele>
        <time>2020-07-23T09:11:16Z</time>
      </trkpt>
      <trkpt lat="49.61635" lon="4.95925">
        <ele>202.98</ele>
        <time>2020-07-23T09:11:32Z</time>
      </trkpt>
      <trkpt lat="49.61644" lon="4.95936">
        <ele>207.3</ele>
        <time>2020-07-23T09:11:42Z</time>
      </trkpt>
      <trkpt lat="49.61651" lon="4.95945">
        <ele>208.74</ele>
        <time>2020-07-23T09:11:50Z</time>
      </trkpt>
      <trkpt lat="49.61663" lon="4.95953">
        <ele>213.07</ele>
        <time>2020-07-23T09:12:05Z</time>
      </trkpt>
      <trkpt lat="49.61674" lon="4.95959">
        <ele>214.03</ele>
        <time>2020-07-23T09:12:18Z</time>
      </trkpt>
      <trkpt lat="49.61687" lon="4.95968">
        <ele>219.32</ele>
        <time>2020-07-23T09:12:35Z</time>
      </trkpt>
      <trkpt lat="49.61694" lon="4.95979">
        <ele>221.72</ele>
        <time>2020-07-23T09:12:45Z</time>
      </trkpt>
      <trkpt lat="49.61701" lon="4.95985">
        <ele>223.16</ele>
        <time>2020-07-23T09:12:51Z</time>
      </trkpt>
      <trkpt lat="49.61706" lon="4.95987">
        <ele>224.61</ele>
        <time>2020-07-23T09:12:56Z</time>
      </trkpt>
      <trkpt lat="49.61725" lon="4.95999">
        <ele>225.09</ele>
        <time>2020-07-23T09:13:14Z</time>
      </trkpt>
      <trkpt lat="49.61744" lon="4.96001">
        <ele>209.7</ele>
        <time>2020-07-23T09:13:33Z</time>
      </trkpt>
      <trkpt lat="49.6175" lon="4.96003">
        <ele>204.9</ele>
        <time>2020-07-23T09:13:39Z</time>
      </trkpt>
      <trkpt lat="49.61773" lon="4.96007">
        <ele>198.17</ele>
        <time>2020-07-23T09:13:58Z</time>
      </trkpt>
      <trkpt lat="49.61789" lon="4.96013">
        <ele>194.32</ele>
        <time>2020-07-23T09:14:13Z</time>
      </trkpt>
      <trkpt lat="49.61791" lon="4.96013">
        <ele>193.84</ele>
        <time>2020-07-23T09:14:15Z</time>
      </trkpt>
      <trkpt lat="49.61808" lon="4.96013">
        <ele>185.19</ele>
        <time>2020-07-23T09:14:31Z</time>
      </trkpt>
      <trkpt lat="49.61816" lon="4.96019">
        <ele>184.23</ele>
        <time>2020-07-23T09:14:43Z</time>
      </trkpt>
      <trkpt lat="49.61836" lon="4.9602">
        <ele>182.79</ele>
        <time>2020-07-23T09:14:59Z</time>
      </trkpt>
      <trkpt lat="49.61854" lon="4.96026">
        <ele>183.75</ele>
        <time>2020-07-23T09:15:16Z</time>
      </trkpt>
      <trkpt lat="49.61867" lon="4.9603">
        <ele>185.67</ele>
        <time>2020-07-23T09:15:30Z</time>
      </trkpt>
      <trkpt lat="49.61872" lon="4.96033">
        <ele>186.15</ele>
        <time>2020-07-23T09:15:38Z</time>
      </trkpt>
      <trkpt lat="49.61891" lon="4.96039">
        <ele>188.56</ele>
        <time>2020-07-23T09:15:54Z</time>
      </trkpt>
      <trkpt lat="49.61907" lon="4.96041">
        <ele>187.59</ele>
        <time>2020-07-23T09:16:10Z</time>
      </trkpt>
      <trkpt lat="49.61924" lon="4.96043">
        <ele>190</ele>
        <time>2020-07-23T09:16:25Z</time>
      </trkpt>
      <trkpt lat="49.61938" lon="4.96043">
        <ele>193.36</ele>
        <time>2020-07-23T09:16:39Z</time>
      </trkpt>
      <trkpt lat="49.61949" lon="4.96043">
        <ele>195.77</ele>
        <time>2020-07-23T09:16:49Z</time>
      </trkpt>
      <trkpt lat="49.6196" lon="4.96048">
        <ele>196.73</ele>
        <time>2020-07-23T09:16:57Z</time>
      </trkpt>
      <trkpt lat="49.61973" lon="4.96052">
        <ele>198.65</ele>
        <time>2020-07-23T09:17:10Z</time>
      </trkpt>
      <trkpt lat="49.61992" lon="4.96053">
        <ele>201.05</ele>
        <time>2020-07-23T09:17:26Z</time>
      </trkpt>
      <trkpt lat="49.62016" lon="4.96055">
        <ele>201.53</ele>
        <time>2020-07-23T09:17:42Z</time>
      </trkpt>
      <trkpt lat="49.62028" lon="4.96052">
        <ele>194.32</ele>
        <time>2020-07-23T09:17:56Z</time>
      </trkpt>
      <trkpt lat="49.62051" lon="4.9605">
        <ele>190.48</ele>
        <time>2020-07-23T09:18:12Z</time>
      </trkpt>
      <trkpt lat="49.62063" lon="4.96051">
        <ele>189.52</ele>
        <time>2020-07-23T09:18:25Z</time>
      </trkpt>
      <trkpt lat="49.62072" lon="4.96049">
        <ele>191.92</ele>
        <time>2020-07-23T09:18:34Z</time>
      </trkpt>
      <trkpt lat="49.6208" lon="4.96048">
        <ele>193.36</ele>
        <time>2020-07-23T09:18:39Z</time>
      </trkpt>
      <trkpt lat="49.62098" lon="4.96048">
        <ele>197.69</ele>
        <time>2020-07-23T09:18:53Z</time>
      </trkpt>
      <trkpt lat="49.62113" lon="4.96037">
        <ele>197.69</ele>
        <time>2020-07-23T09:19:09Z</time>
      </trkpt>
      <trkpt lat="49.62119" lon="4.96038">
        <ele>192.88</ele>
        <time>2020-07-23T09:19:16Z</time>
      </trkpt>
      <trkpt lat="49.62131" lon="4.96035">
        <ele>193.36</ele>
        <time>2020-07-23T09:19:25Z</time>
      </trkpt>
      <trkpt lat="49.62149" lon="4.96026">
        <ele>192.88</ele>
        <time>2020-07-23T09:19:41Z</time>
      </trkpt>
      <trkpt lat="49.62162" lon="4.96016">
        <ele>197.21</ele>
        <time>2020-07-23T09:19:57Z</time>
      </trkpt>
      <trkpt lat="49.62162" lon="4.96016">
        <ele>197.21</ele>
        <time>2020-07-23T09:19:58Z</time>
      </trkpt>
      <trkpt lat="49.6218" lon="4.96018">
        <ele>200.57</ele>
        <time>2020-07-23T09:20:11Z</time>
      </trkpt>
      <trkpt lat="49.62203" lon="4.9602">
        <ele>201.05</ele>
        <time>2020-07-23T09:20:27Z</time>
      </trkpt>
      <trkpt lat="49.62205" lon="4.96028">
        <ele>194.32</ele>
        <time>2020-07-23T09:20:32Z</time>
      </trkpt>
      <trkpt lat="49.62209" lon="4.9603">
        <ele>191.92</ele>
        <time>2020-07-23T09:20:35Z</time>
      </trkpt>
      <trkpt lat="49.62212" lon="4.96028">
        <ele>190.48</ele>
        <time>2020-07-23T09:20:38Z</time>
      </trkpt>
      <trkpt lat="49.62215" lon="4.96023">
        <ele>190.48</ele>
        <time>2020-07-23T09:20:41Z</time>
      </trkpt>
      <trkpt lat="49.62226" lon="4.96001">
        <ele>192.4</ele>
        <time>2020-07-23T09:20:55Z</time>
      </trkpt>
      <trkpt lat="49.62236" lon="4.95987">
        <ele>192.88</ele>
        <time>2020-07-23T09:21:07Z</time>
      </trkpt>
      <trkpt lat="49.6224" lon="4.95975">
        <ele>195.77</ele>
        <time>2020-07-23T09:21:20Z</time>
      </trkpt>
      <trkpt lat="49.62246" lon="4.95965">
        <ele>197.21</ele>
        <time>2020-07-23T09:21:34Z</time>
      </trkpt>
      <trkpt lat="49.62256" lon="4.95949">
        <ele>198.17</ele>
        <time>2020-07-23T09:21:46Z</time>
      </trkpt>
      <trkpt lat="49.6226" lon="4.95942">
        <ele>197.69</ele>
        <time>2020-07-23T09:21:50Z</time>
      </trkpt>
      <trkpt lat="49.62268" lon="4.95929">
        <ele>196.25</ele>
        <time>2020-07-23T09:21:56Z</time>
      </trkpt>
      <trkpt lat="49.62282" lon="4.95918">
        <ele>193.84</ele>
        <time>2020-07-23T09:22:08Z</time>
      </trkpt>
      <trkpt lat="49.62286" lon="4.95916">
        <ele>193.36</ele>
        <time>2020-07-23T09:22:12Z</time>
      </trkpt>
      <trkpt lat="49.62294" lon="4.95912">
        <ele>193.84</ele>
        <time>2020-07-23T09:22:19Z</time>
      </trkpt>
      <trkpt lat="49.62309" lon="4.95898">
        <ele>194.32</ele>
        <time>2020-07-23T09:22:33Z</time>
      </trkpt>
      <trkpt lat="49.62326" lon="4.95885">
        <ele>196.25</ele>
        <time>2020-07-23T09:22:49Z</time>
      </trkpt>
      <trkpt lat="49.62343" lon="4.95885">
        <ele>195.77</ele>
        <time>2020-07-23T09:23:02Z</time>
      </trkpt>
      <trkpt lat="49.62346" lon="4.95889">
        <ele>195.77</ele>
        <time>2020-07-23T09:23:05Z</time>
      </trkpt>
      <trkpt lat="49.62358" lon="4.95912">
        <ele>193.36</ele>
        <time>2020-07-23T09:23:19Z</time>
      </trkpt>
      <trkpt lat="49.62363" lon="4.95935">
        <ele>192.88</ele>
        <time>2020-07-23T09:23:33Z</time>
      </trkpt>
      <trkpt lat="49.62369" lon="4.95957">
        <ele>184.71</ele>
        <time>2020-07-23T09:23:48Z</time>
      </trkpt>
      <trkpt lat="49.6237" lon="4.95966">
        <ele>185.19</ele>
        <time>2020-07-23T09:23:53Z</time>
      </trkpt>
      <trkpt lat="49.62374" lon="4.9599">
        <ele>185.19</ele>
        <time>2020-07-23T09:24:08Z</time>
      </trkpt>
      <trkpt lat="49.62375" lon="4.95992">
        <ele>185.19</ele>
        <time>2020-07-23T09:24:09Z</time>
      </trkpt>
      <trkpt lat="49.62381" lon="4.96016">
        <ele>185.19</ele>
        <time>2020-07-23T09:24:24Z</time>
      </trkpt>
      <trkpt lat="49.62384" lon="4.96031">
        <ele>188.08</ele>
        <time>2020-07-23T09:24:36Z</time>
      </trkpt>
      <trkpt lat="49.62389" lon="4.9604">
        <ele>189.04</ele>
        <time>2020-07-23T09:24:41Z</time>
      </trkpt>
      <trkpt lat="49.62403" lon="4.96061">
        <ele>188.56</ele>
        <time>2020-07-23T09:24:57Z</time>
      </trkpt>
      <trkpt lat="49.62404" lon="4.96062">
        <ele>189.04</ele>
        <time>2020-07-23T09:24:58Z</time>
      </trkpt>
      <trkpt lat="49.62421" lon="4.96071">
        <ele>188.08</ele>
        <time>2020-07-23T09:25:14Z</time>
      </trkpt>
      <trkpt lat="49.62438" lon="4.96078">
        <ele>186.63</ele>
        <time>2020-07-23T09:25:30Z</time>
      </trkpt>
      <trkpt lat="49.6245" lon="4.96087">
        <ele>187.11</ele>
        <time>2020-07-23T09:25:45Z</time>
      </trkpt>
      <trkpt lat="49.62468" lon="4.96096">
        <ele>187.11</ele>
        <time>2020-07-23T09:26:01Z</time>
      </trkpt>
      <trkpt lat="49.62483" lon="4.96103">
        <ele>189.04</ele>
        <time>2020-07-23T09:26:17Z</time>
      </trkpt>
      <trkpt lat="49.625" lon="4.96108">
        <ele>190.48</ele>
        <time>2020-07-23T09:26:33Z</time>
      </trkpt>
      <trkpt lat="49.62511" lon="4.96109">
        <ele>190.48</ele>
        <time>2020-07-23T09:26:43Z</time>
      </trkpt>
      <trkpt lat="49.62533" lon="4.9611">
        <ele>190.48</ele>
        <time>2020-07-23T09:27:04Z</time>
      </trkpt>
      <trkpt lat="49.62536" lon="4.96109">
        <ele>190.48</ele>
        <time>2020-07-23T09:27:07Z</time>
      </trkpt>
      <trkpt lat="49.62557" lon="4.96102">
        <ele>190</ele>
        <time>2020-07-23T09:27:26Z</time>
      </trkpt>
      <trkpt lat="49.62576" lon="4.96097">
        <ele>192.4</ele>
        <time>2020-07-23T09:27:42Z</time>
      </trkpt>
      <trkpt lat="49.62596" lon="4.96091">
        <ele>199.61</ele>
        <time>2020-07-23T09:28:02Z</time>
      </trkpt>
      <trkpt lat="49.62599" lon="4.96088">
        <ele>203.94</ele>
        <time>2020-07-23T09:28:08Z</time>
      </trkpt>
      <trkpt lat="49.62617" lon="4.96101">
        <ele>211.63</ele>
        <time>2020-07-23T09:28:26Z</time>
      </trkpt>
      <trkpt lat="49.62626" lon="4.96113">
        <ele>211.15</ele>
        <time>2020-07-23T09:28:39Z</time>
      </trkpt>
      <trkpt lat="49.62628" lon="4.96115">
        <ele>211.63</ele>
        <time>2020-07-23T09:28:42Z</time>
      </trkpt>
      <trkpt lat="49.62641" lon="4.96128">
        <ele>208.74</ele>
        <time>2020-07-23T09:29:01Z</time>
      </trkpt>
      <trkpt lat="49.62652" lon="4.96142">
        <ele>203.94</ele>
        <time>2020-07-23T09:29:18Z</time>
      </trkpt>
      <trkpt lat="49.62662" lon="4.96151">
        <ele>195.77</ele>
        <time>2020-07-23T09:29:35Z</time>
      </trkpt>
      <trkpt lat="49.62666" lon="4.96154">
        <ele>194.8</ele>
        <time>2020-07-23T09:29:40Z</time>
      </trkpt>
      <trkpt lat="49.62673" lon="4.96164">
        <ele>194.32</ele>
        <time>2020-07-23T09:29:51Z</time>
      </trkpt>
      <trkpt lat="49.62683" lon="4.96185">
        <ele>194.32</ele>
        <time>2020-07-23T09:30:07Z</time>
      </trkpt>
      <trkpt lat="49.62693" lon="4.96206">
        <ele>191.92</ele>
        <time>2020-07-23T09:30:24Z</time>
      </trkpt>
      <trkpt lat="49.62705" lon="4.9622">
        <ele>190.96</ele>
        <time>2020-07-23T09:30:37Z</time>
      </trkpt>
      <trkpt lat="49.62721" lon="4.96227">
        <ele>190.48</ele>
        <time>2020-07-23T09:30:50Z</time>
      </trkpt>
      <trkpt lat="49.62738" lon="4.96237">
        <ele>185.19</ele>
        <time>2020-07-23T09:31:05Z</time>
      </trkpt>
      <trkpt lat="49.62754" lon="4.96249">
        <ele>180.87</ele>
        <time>2020-07-23T09:31:21Z</time>
      </trkpt>
      <trkpt lat="49.62769" lon="4.96261">
        <ele>179.42</ele>
        <time>2020-07-23T09:31:35Z</time>
      </trkpt>
      <trkpt lat="49.62787" lon="4.96274">
        <ele>177.5</ele>
        <time>2020-07-23T09:31:52Z</time>
      </trkpt>
      <trkpt lat="49.62802" lon="4.96285">
        <ele>177.98</ele>
        <time>2020-07-23T09:32:06Z</time>
      </trkpt>
      <trkpt lat="49.62817" lon="4.96299">
        <ele>181.35</ele>
        <time>2020-07-23T09:32:21Z</time>
      </trkpt>
      <trkpt lat="49.62824" lon="4.96305">
        <ele>183.27</ele>
        <time>2020-07-23T09:32:35Z</time>
      </trkpt>
      <trkpt lat="49.62824" lon="4.96301">
        <ele>183.27</ele>
        <time>2020-07-23T09:32:49Z</time>
      </trkpt>
      <trkpt lat="49.62839" lon="4.96303">
        <ele>182.79</ele>
        <time>2020-07-23T09:33:04Z</time>
      </trkpt>
      <trkpt lat="49.62854" lon="4.96308">
        <ele>183.27</ele>
        <time>2020-07-23T09:33:17Z</time>
      </trkpt>
      <trkpt lat="49.62873" lon="4.96317">
        <ele>183.27</ele>
        <time>2020-07-23T09:33:32Z</time>
      </trkpt>
      <trkpt lat="49.62886" lon="4.96325">
        <ele>184.23</ele>
        <time>2020-07-23T09:33:47Z</time>
      </trkpt>
      <trkpt lat="49.62897" lon="4.96334">
        <ele>182.31</ele>
        <time>2020-07-23T09:34:02Z</time>
      </trkpt>
      <trkpt lat="49.62907" lon="4.96342">
        <ele>180.87</ele>
        <time>2020-07-23T09:34:14Z</time>
      </trkpt>
      <trkpt lat="49.62909" lon="4.96344">
        <ele>180.38</ele>
        <time>2020-07-23T09:34:17Z</time>
      </trkpt>
      <trkpt lat="49.62919" lon="4.96353">
        <ele>180.38</ele>
        <time>2020-07-23T09:34:26Z</time>
      </trkpt>
      <trkpt lat="49.62933" lon="4.96364">
        <ele>178.94</ele>
        <time>2020-07-23T09:34:43Z</time>
      </trkpt>
      <trkpt lat="49.62947" lon="4.96373">
        <ele>176.06</ele>
        <time>2020-07-23T09:34:57Z</time>
      </trkpt>
      <trkpt lat="49.62963" lon="4.96383">
        <ele>175.58</ele>
        <time>2020-07-23T09:35:13Z</time>
      </trkpt>
      <trkpt lat="49.62974" lon="4.96391">
        <ele>175.58</ele>
        <time>2020-07-23T09:35:25Z</time>
      </trkpt>
      <trkpt lat="49.62994" lon="4.96405">
        <ele>174.62</ele>
        <time>2020-07-23T09:35:40Z</time>
      </trkpt>
      <trkpt lat="49.6301" lon="4.96415">
        <ele>173.17</ele>
        <time>2020-07-23T09:35:56Z</time>
      </trkpt>
      <trkpt lat="49.63024" lon="4.96425">
        <ele>171.73</ele>
        <time>2020-07-23T09:36:12Z</time>
      </trkpt>
      <trkpt lat="49.63035" lon="4.96433">
        <ele>170.29</ele>
        <time>2020-07-23T09:36:23Z</time>
      </trkpt>
      <trkpt lat="49.63048" lon="4.96441">
        <ele>169.81</ele>
        <time>2020-07-23T09:36:38Z</time>
      </trkpt>
      <trkpt lat="49.63056" lon="4.96445">
        <ele>168.85</ele>
        <time>2020-07-23T09:36:44Z</time>
      </trkpt>
      <trkpt lat="49.63072" lon="4.96455">
        <ele>169.33</ele>
        <time>2020-07-23T09:37:00Z</time>
      </trkpt>
      <trkpt lat="49.63083" lon="4.96462">
        <ele>169.81</ele>
        <time>2020-07-23T09:37:12Z</time>
      </trkpt>
      <trkpt lat="49.63089" lon="4.96465">
        <ele>169.81</ele>
        <time>2020-07-23T09:37:17Z</time>
      </trkpt>
      <trkpt lat="49.63104" lon="4.96475">
        <ele>171.73</ele>
        <time>2020-07-23T09:37:33Z</time>
      </trkpt>
      <trkpt lat="49.63116" lon="4.96484">
        <ele>172.21</ele>
        <time>2020-07-23T09:37:45Z</time>
      </trkpt>
      <trkpt lat="49.63132" lon="4.96494">
        <ele>171.25</ele>
        <time>2020-07-23T09:38:02Z</time>
      </trkpt>
      <trkpt lat="49.63148" lon="4.96505">
        <ele>170.29</ele>
        <time>2020-07-23T09:38:18Z</time>
      </trkpt>
      <trkpt lat="49.6316" lon="4.96511">
        <ele>168.85</ele>
        <time>2020-07-23T09:38:30Z</time>
      </trkpt>
      <trkpt lat="49.63178" lon="4.96522">
        <ele>166.93</ele>
        <time>2020-07-23T09:38:48Z</time>
      </trkpt>
      <trkpt lat="49.63191" lon="4.96529">
        <ele>166.93</ele>
        <time>2020-07-23T09:39:01Z</time>
      </trkpt>
      <trkpt lat="49.63207" lon="4.96538">
        <ele>167.41</ele>
        <time>2020-07-23T09:39:16Z</time>
      </trkpt>
      <trkpt lat="49.63221" lon="4.96551">
        <ele>167.41</ele>
        <time>2020-07-23T09:39:32Z</time>
      </trkpt>
      <trkpt lat="49.63233" lon="4.96557">
        <ele>165.48</ele>
        <time>2020-07-23T09:39:44Z</time>
      </trkpt>
      <trkpt lat="49.63234" lon="4.96558">
        <ele>165.48</ele>
        <time>2020-07-23T09:39:45Z</time>
      </trkpt>
      <trkpt lat="49.63249" lon="4.96571">
        <ele>165.48</ele>
        <time>2020-07-23T09:40:00Z</time>
      </trkpt>
      <trkpt lat="49.63252" lon="4.96577">
        <ele>165.48</ele>
        <time>2020-07-23T09:40:07Z</time>
      </trkpt>
      <trkpt lat="49.63268" lon="4.96589">
        <ele>165.48</ele>
        <time>2020-07-23T09:40:22Z</time>
      </trkpt>
      <trkpt lat="49.63283" lon="4.96602">
        <ele>164.52</ele>
        <time>2020-07-23T09:40:38Z</time>
      </trkpt>
      <trkpt lat="49.63285" lon="4.96609">
        <ele>164.04</ele>
        <time>2020-07-23T09:40:45Z</time>
      </trkpt>
      <trkpt lat="49.63285" lon="4.96617">
        <ele>164.52</ele>
        <time>2020-07-23T09:40:49Z</time>
      </trkpt>
      <trkpt lat="49.63286" lon="4.96622">
        <ele>164.04</ele>
        <time>2020-07-23T09:40:52Z</time>
      </trkpt>
      <trkpt lat="49.6329" lon="4.96642">
        <ele>164.52</ele>
        <time>2020-07-23T09:41:06Z</time>
      </trkpt>
      <trkpt lat="49.63296" lon="4.96656">
        <ele>165.48</ele>
        <time>2020-07-23T09:41:14Z</time>
      </trkpt>
      <trkpt lat="49.63308" lon="4.96673">
        <ele>167.41</ele>
        <time>2020-07-23T09:41:29Z</time>
      </trkpt>
      <trkpt lat="49.63317" lon="4.96686">
        <ele>168.37</ele>
        <time>2020-07-23T09:41:41Z</time>
      </trkpt>
      <trkpt lat="49.63325" lon="4.96703">
        <ele>167.89</ele>
        <time>2020-07-23T09:41:54Z</time>
      </trkpt>
      <trkpt lat="49.63329" lon="4.96723">
        <ele>165.96</ele>
        <time>2020-07-23T09:42:07Z</time>
      </trkpt>
      <trkpt lat="49.63332" lon="4.96747">
        <ele>165.96</ele>
        <time>2020-07-23T09:42:22Z</time>
      </trkpt>
      <trkpt lat="49.63336" lon="4.96767">
        <ele>166.45</ele>
        <time>2020-07-23T09:42:37Z</time>
      </trkpt>
      <trkpt lat="49.63342" lon="4.9679">
        <ele>166.45</ele>
        <time>2020-07-23T09:42:52Z</time>
      </trkpt>
      <trkpt lat="49.63352" lon="4.9681">
        <ele>165.48</ele>
        <time>2020-07-23T09:43:08Z</time>
      </trkpt>
      <trkpt lat="49.63365" lon="4.96823">
        <ele>165</ele>
        <time>2020-07-23T09:43:23Z</time>
      </trkpt>
      <trkpt lat="49.63364" lon="4.96823">
        <ele>165.96</ele>
        <time>2020-07-23T09:43:37Z</time>
      </trkpt>
      <trkpt lat="49.63365" lon="4.96826">
        <ele>165.96</ele>
        <time>2020-07-23T09:43:49Z</time>
      </trkpt>
      <trkpt lat="49.63368" lon="4.96834">
        <ele>166.45</ele>
        <time>2020-07-23T09:43:54Z</time>
      </trkpt>
      <trkpt lat="49.63372" lon="4.96838">
        <ele>166.45</ele>
        <time>2020-07-23T09:43:58Z</time>
      </trkpt>
      <trkpt lat="49.63376" lon="4.96843">
        <ele>168.37</ele>
        <time>2020-07-23T09:44:06Z</time>
      </trkpt>
      <trkpt lat="49.63387" lon="4.96853">
        <ele>167.41</ele>
        <time>2020-07-23T09:44:20Z</time>
      </trkpt>
      <trkpt lat="49.63393" lon="4.96859">
        <ele>166.45</ele>
        <time>2020-07-23T09:44:32Z</time>
      </trkpt>
      <trkpt lat="49.63407" lon="4.96875">
        <ele>166.93</ele>
        <time>2020-07-23T09:44:47Z</time>
      </trkpt>
      <trkpt lat="49.63411" lon="4.96881">
        <ele>167.41</ele>
        <time>2020-07-23T09:44:51Z</time>
      </trkpt>
      <trkpt lat="49.6342" lon="4.96892">
        <ele>167.41</ele>
        <time>2020-07-23T09:45:04Z</time>
      </trkpt>
      <trkpt lat="49.63434" lon="4.96909">
        <ele>166.45</ele>
        <time>2020-07-23T09:45:20Z</time>
      </trkpt>
      <trkpt lat="49.63447" lon="4.96927">
        <ele>165.48</ele>
        <time>2020-07-23T09:45:35Z</time>
      </trkpt>
      <trkpt lat="49.63461" lon="4.96948">
        <ele>165.48</ele>
        <time>2020-07-23T09:45:52Z</time>
      </trkpt>
      <trkpt lat="49.63465" lon="4.96962">
        <ele>166.45</ele>
        <time>2020-07-23T09:46:05Z</time>
      </trkpt>
      <trkpt lat="49.63469" lon="4.96987">
        <ele>169.33</ele>
        <time>2020-07-23T09:46:19Z</time>
      </trkpt>
      <trkpt lat="49.6347" lon="4.97006">
        <ele>171.73</ele>
        <time>2020-07-23T09:46:31Z</time>
      </trkpt>
      <trkpt lat="49.63478" lon="4.97031">
        <ele>174.62</ele>
        <time>2020-07-23T09:46:46Z</time>
      </trkpt>
      <trkpt lat="49.63484" lon="4.97053">
        <ele>177.02</ele>
        <time>2020-07-23T09:47:00Z</time>
      </trkpt>
      <trkpt lat="49.63487" lon="4.97062">
        <ele>178.46</ele>
        <time>2020-07-23T09:47:11Z</time>
      </trkpt>
      <trkpt lat="49.63495" lon="4.97085">
        <ele>180.38</ele>
        <time>2020-07-23T09:47:25Z</time>
      </trkpt>
      <trkpt lat="49.63499" lon="4.97105">
        <ele>180.87</ele>
        <time>2020-07-23T09:47:38Z</time>
      </trkpt>
      <trkpt lat="49.63505" lon="4.97128">
        <ele>181.35</ele>
        <time>2020-07-23T09:47:53Z</time>
      </trkpt>
      <trkpt lat="49.63512" lon="4.97146">
        <ele>181.35</ele>
        <time>2020-07-23T09:48:06Z</time>
      </trkpt>
      <trkpt lat="49.63518" lon="4.97167">
        <ele>181.35</ele>
        <time>2020-07-23T09:48:21Z</time>
      </trkpt>
      <trkpt lat="49.63523" lon="4.97187">
        <ele>181.83</ele>
        <time>2020-07-23T09:48:35Z</time>
      </trkpt>
      <trkpt lat="49.63527" lon="4.97211">
        <ele>182.79</ele>
        <time>2020-07-23T09:48:50Z</time>
      </trkpt>
      <trkpt lat="49.63534" lon="4.97232">
        <ele>182.79</ele>
        <time>2020-07-23T09:49:04Z</time>
      </trkpt>
      <trkpt lat="49.63541" lon="4.97255">
        <ele>182.79</ele>
        <time>2020-07-23T09:49:19Z</time>
      </trkpt>
      <trkpt lat="49.63547" lon="4.97274">
        <ele>183.27</ele>
        <time>2020-07-23T09:49:32Z</time>
      </trkpt>
      <trkpt lat="49.63552" lon="4.97294">
        <ele>181.83</ele>
        <time>2020-07-23T09:49:47Z</time>
      </trkpt>
      <trkpt lat="49.63559" lon="4.97314">
        <ele>181.35</ele>
        <time>2020-07-23T09:50:01Z</time>
      </trkpt>
      <trkpt lat="49.63568" lon="4.97332">
        <ele>180.38</ele>
        <time>2020-07-23T09:50:16Z</time>
      </trkpt>
      <trkpt lat="49.6358" lon="4.97345">
        <ele>179.9</ele>
        <time>2020-07-23T09:50:29Z</time>
      </trkpt>
      <trkpt lat="49.63593" lon="4.97359">
        <ele>178.94</ele>
        <time>2020-07-23T09:50:43Z</time>
      </trkpt>
      <trkpt lat="49.63605" lon="4.97373">
        <ele>177.98</ele>
        <time>2020-07-23T09:50:57Z</time>
      </trkpt>
      <trkpt lat="49.63606" lon="4.97374">
        <ele>177.98</ele>
        <time>2020-07-23T09:50:58Z</time>
      </trkpt>
      <trkpt lat="49.6362" lon="4.97392">
        <ele>179.42</ele>
        <time>2020-07-23T09:51:14Z</time>
      </trkpt>
      <trkpt lat="49.63636" lon="4.9741">
        <ele>178.94</ele>
        <time>2020-07-23T09:51:30Z</time>
      </trkpt>
      <trkpt lat="49.6364" lon="4.97413">
        <ele>178.46</ele>
        <time>2020-07-23T09:51:33Z</time>
      </trkpt>
      <trkpt lat="49.63647" lon="4.97422">
        <ele>177.98</ele>
        <time>2020-07-23T09:51:43Z</time>
      </trkpt>
      <trkpt lat="49.6365" lon="4.97431">
        <ele>177.02</ele>
        <time>2020-07-23T09:51:49Z</time>
      </trkpt>
      <trkpt lat="49.63642" lon="4.97452">
        <ele>179.9</ele>
        <time>2020-07-23T09:52:04Z</time>
      </trkpt>
      <trkpt lat="49.63634" lon="4.97484">
        <ele>183.27</ele>
        <time>2020-07-23T09:52:22Z</time>
      </trkpt>
      <trkpt lat="49.63634" lon="4.97489">
        <ele>184.23</ele>
        <time>2020-07-23T09:52:25Z</time>
      </trkpt>
      <trkpt lat="49.63639" lon="4.97511">
        <ele>180.87</ele>
        <time>2020-07-23T09:52:39Z</time>
      </trkpt>
      <trkpt lat="49.63643" lon="4.97529">
        <ele>179.42</ele>
        <time>2020-07-23T09:52:53Z</time>
      </trkpt>
      <trkpt lat="49.63644" lon="4.97562">
        <ele>177.98</ele>
        <time>2020-07-23T09:53:10Z</time>
      </trkpt>
      <trkpt lat="49.63646" lon="4.9757">
        <ele>177.98</ele>
        <time>2020-07-23T09:53:15Z</time>
      </trkpt>
      <trkpt lat="49.63647" lon="4.97577">
        <ele>177.5</ele>
        <time>2020-07-23T09:53:19Z</time>
      </trkpt>
      <trkpt lat="49.63647" lon="4.97592">
        <ele>172.69</ele>
        <time>2020-07-23T09:53:33Z</time>
      </trkpt>
      <trkpt lat="49.63645" lon="4.97607">
        <ele>169.33</ele>
        <time>2020-07-23T09:53:45Z</time>
      </trkpt>
      <trkpt lat="49.63632" lon="4.97629">
        <ele>170.77</ele>
        <time>2020-07-23T09:53:59Z</time>
      </trkpt>
      <trkpt lat="49.63625" lon="4.97643">
        <ele>170.77</ele>
        <time>2020-07-23T09:54:14Z</time>
      </trkpt>
      <trkpt lat="49.63623" lon="4.97645">
        <ele>170.77</ele>
        <time>2020-07-23T09:54:17Z</time>
      </trkpt>
      <trkpt lat="49.63613" lon="4.97654">
        <ele>170.77</ele>
        <time>2020-07-23T09:54:27Z</time>
      </trkpt>
      <trkpt lat="49.63612" lon="4.97658">
        <ele>170.77</ele>
        <time>2020-07-23T09:54:29Z</time>
      </trkpt>
      <trkpt lat="49.63611" lon="4.97661">
        <ele>171.25</ele>
        <time>2020-07-23T09:54:38Z</time>
      </trkpt>
      <trkpt lat="49.63596" lon="4.97665">
        <ele>171.73</ele>
        <time>2020-07-23T09:54:53Z</time>
      </trkpt>
      <trkpt lat="49.6358" lon="4.97674">
        <ele>173.66</ele>
        <time>2020-07-23T09:55:06Z</time>
      </trkpt>
      <trkpt lat="49.63568" lon="4.97688">
        <ele>177.02</ele>
        <time>2020-07-23T09:55:21Z</time>
      </trkpt>
      <trkpt lat="49.63553" lon="4.97708">
        <ele>177.5</ele>
        <time>2020-07-23T09:55:37Z</time>
      </trkpt>
      <trkpt lat="49.63544" lon="4.9773">
        <ele>175.58</ele>
        <time>2020-07-23T09:55:50Z</time>
      </trkpt>
      <trkpt lat="49.63536" lon="4.97749">
        <ele>175.58</ele>
        <time>2020-07-23T09:56:08Z</time>
      </trkpt>
      <trkpt lat="49.63526" lon="4.97774">
        <ele>173.66</ele>
        <time>2020-07-23T09:56:27Z</time>
      </trkpt>
      <trkpt lat="49.63513" lon="4.97789">
        <ele>175.1</ele>
        <time>2020-07-23T09:56:40Z</time>
      </trkpt>
      <trkpt lat="49.63496" lon="4.97811">
        <ele>177.02</ele>
        <time>2020-07-23T09:57:01Z</time>
      </trkpt>
      <trkpt lat="49.63483" lon="4.97827">
        <ele>177.02</ele>
        <time>2020-07-23T09:57:17Z</time>
      </trkpt>
      <trkpt lat="49.63476" lon="4.97837">
        <ele>178.46</ele>
        <time>2020-07-23T09:57:24Z</time>
      </trkpt>
      <trkpt lat="49.63473" lon="4.97849">
        <ele>176.06</ele>
        <time>2020-07-23T09:57:33Z</time>
      </trkpt>
      <trkpt lat="49.63461" lon="4.97864">
        <ele>176.06</ele>
        <time>2020-07-23T09:57:45Z</time>
      </trkpt>
      <trkpt lat="49.63453" lon="4.97877">
        <ele>176.54</ele>
        <time>2020-07-23T09:57:58Z</time>
      </trkpt>
      <trkpt lat="49.63445" lon="4.97889">
        <ele>177.02</ele>
        <time>2020-07-23T09:58:09Z</time>
      </trkpt>
      <trkpt lat="49.63439" lon="4.97896">
        <ele>176.54</ele>
        <time>2020-07-23T09:58:16Z</time>
      </trkpt>
      <trkpt lat="49.63426" lon="4.97898">
        <ele>177.02</ele>
        <time>2020-07-23T09:58:29Z</time>
      </trkpt>
      <trkpt lat="49.63422" lon="4.97899">
        <ele>177.02</ele>
        <time>2020-07-23T09:58:34Z</time>
      </trkpt>
      <trkpt lat="49.6341" lon="4.97911">
        <ele>177.02</ele>
        <time>2020-07-23T09:58:48Z</time>
      </trkpt>
      <trkpt lat="49.63404" lon="4.9792">
        <ele>177.02</ele>
        <time>2020-07-23T09:58:56Z</time>
      </trkpt>
      <trkpt lat="49.63396" lon="4.97924">
        <ele>176.54</ele>
        <time>2020-07-23T09:59:04Z</time>
      </trkpt>
      <trkpt lat="49.63391" lon="4.97929">
        <ele>176.54</ele>
        <time>2020-07-23T09:59:10Z</time>
      </trkpt>
      <trkpt lat="49.63382" lon="4.97936">
        <ele>178.46</ele>
        <time>2020-07-23T09:59:19Z</time>
      </trkpt>
      <trkpt lat="49.63383" lon="4.97943">
        <ele>178.46</ele>
        <time>2020-07-23T09:59:24Z</time>
      </trkpt>
      <trkpt lat="49.63393" lon="4.97961">
        <ele>178.94</ele>
        <time>2020-07-23T09:59:37Z</time>
      </trkpt>
      <trkpt lat="49.634" lon="4.97979">
        <ele>181.35</ele>
        <time>2020-07-23T09:59:48Z</time>
      </trkpt>
      <trkpt lat="49.63406" lon="4.97993">
        <ele>182.79</ele>
        <time>2020-07-23T09:59:59Z</time>
      </trkpt>
      <trkpt lat="49.63412" lon="4.98007">
        <ele>184.23</ele>
        <time>2020-07-23T10:00:11Z</time>
      </trkpt>
      <trkpt lat="49.6342" lon="4.98023">
        <ele>185.19</ele>
        <time>2020-07-23T10:00:24Z</time>
      </trkpt>
      <trkpt lat="49.63429" lon="4.98032">
        <ele>185.19</ele>
        <time>2020-07-23T10:00:36Z</time>
      </trkpt>
      <trkpt lat="49.63439" lon="4.98041">
        <ele>185.19</ele>
        <time>2020-07-23T10:00:49Z</time>
      </trkpt>
      <trkpt lat="49.63449" lon="4.98048">
        <ele>181.35</ele>
        <time>2020-07-23T10:01:02Z</time>
      </trkpt>
      <trkpt lat="49.6345" lon="4.98049">
        <ele>181.35</ele>
        <time>2020-07-23T10:01:04Z</time>
      </trkpt>
      <trkpt lat="49.63453" lon="4.98044">
        <ele>179.9</ele>
        <time>2020-07-23T10:01:18Z</time>
      </trkpt>
      <trkpt lat="49.63447" lon="4.98039">
        <ele>177.02</ele>
        <time>2020-07-23T10:01:39Z</time>
      </trkpt>
      <trkpt lat="49.63458" lon="4.98032">
        <ele>175.58</ele>
        <time>2020-07-23T10:01:52Z</time>
      </trkpt>
      <trkpt lat="49.63455" lon="4.98071">
        <ele>177.5</ele>
        <time>2020-07-23T11:48:53Z</time>
      </trkpt>
      <trkpt lat="49.63455" lon="4.98074">
        <ele>176.06</ele>
        <time>2020-07-23T11:48:58Z</time>
      </trkpt>
    </trkseg>
  </trk>
</gpx>